Time,TemperatureF,DewpointF,PressureIn,WindDirection,WindDirectionDegrees,WindSpeedMPH,WindSpeedGustMPH,Humidity,HourlyPrecipIn,Conditions,Clouds,dailyrainin,SolarRadiationWatts/m^2,SoftwareType,DateUTC
2013-11-07 00:00:00,41.8,36.7,30.01,NW,305,7.6,8.7,82,0.00,,,0.12,0.00,VWS V14.01,2013-11-07 05:00:00,
2013-11-07 00:01:00,41.9,37.0,30.01,NNW,335,10.0,10.0,83,0.00,,,0.00,0.00,VWS V14.01,2013-11-07 05:01:00,
2013-11-07 00:02:00,41.8,36.6,30.02,NNW,328,10.0,11.9,82,0.00,,,0.00,0.00,VWS V14.01,2013-11-07 05:02:00,
2013-11-07 00:07:00,41.8,36.5,30.02,NW,311,8.8,8.8,81,0.00,,,0.00,0.00,VWS V14.01,2013-11-07 05:07:00,
2013-11-07 00:08:00,41.6,36.4,30.02,NW,323,6.1,8.8,82,0.00,,,0.00,0.00,VWS V14.01,2013-11-07 05:08:00,
2013-11-07 00:11:00,41.8,36.1,30.02,NW,309,11.4,11.4,80,0.00,,,0.00,0.00,VWS V14.01,2013-11-07 05:11:00,
2013-11-07 00:12:00,41.6,36.0,30.02,NW,312,7.8,11.4,80,0.00,,,0.00,0.00,VWS V14.01,2013-11-07 05:12:00,
2013-11-07 00:13:00,41.8,36.2,30.02,NW,304,12.1,12.1,80,0.00,,,0.00,0.00,VWS V14.01,2013-11-07 05:13:00,
2013-11-07 00:14:00,41.7,36.0,30.03,NW,307,11.1,12.1,80,0.00,,,0.00,0.00,VWS V14.01,2013-11-07 05:14:00,
2013-11-07 00:15:00,41.6,35.9,30.03,NW,320,10.0,11.1,80,0.00,,,0.00,0.00,VWS V14.01,2013-11-07 05:15:00,
2013-11-07 00:17:00,41.9,36.1,30.02,NW,319,11.7,11.7,80,0.00,,,0.00,0.00,VWS V14.01,2013-11-07 05:17:00,
2013-11-07 00:19:00,41.5,35.6,30.03,NW,325,8.0,10.9,79,0.00,,,0.00,0.00,VWS V14.01,2013-11-07 05:19:00,
2013-11-07 00:20:00,41.6,35.7,30.02,NNW,331,8.7,8.7,79,0.00,,,0.00,0.00,VWS V14.01,2013-11-07 05:20:00,
2013-11-07 00:22:00,41.7,32.5,30.01,NW,304,11.7,12.1,70,0.00,,,0.00,0.00,VWS V14.01,2013-11-07 05:22:00,
2013-11-07 00:23:00,41.7,35.2,30.01,NW,319,11.6,11.7,78,0.00,,,0.00,0.00,VWS V14.01,2013-11-07 05:23:00,
2013-11-07 00:25:00,41.6,35.0,30.00,NW,311,9.9,9.9,77,0.00,,,0.00,0.00,VWS V14.01,2013-11-07 05:25:00,
2013-11-07 00:27:00,41.7,35.3,30.01,North,352,8.1,8.1,78,0.00,,,0.00,0.43,VWS V14.01,2013-11-07 05:27:00,
2013-11-07 00:30:00,41.7,35.2,30.03,NNW,344,9.0,9.0,77,0.00,,,0.00,0.00,VWS V14.01,2013-11-07 05:30:00,
2013-11-07 00:32:00,41.5,35.1,30.02,NW,319,11.6,11.6,78,0.00,,,0.00,0.43,VWS V14.01,2013-11-07 05:32:00,
2013-11-07 00:33:00,41.2,34.6,30.03,NW,320,8.0,11.1,77,0.00,,,0.00,0.00,VWS V14.01,2013-11-07 05:33:00,
2013-11-07 00:34:00,41.3,34.9,30.07,NW,322,9.0,11.1,78,0.00,,,0.00,0.73,VWS V14.01,2013-11-07 05:34:00,
2013-11-07 00:36:00,41.3,35.3,30.03,NW,310,6.6,8.0,79,0.00,,,0.00,0.00,VWS V14.01,2013-11-07 05:36:00,
2013-11-07 00:37:00,41.1,35.0,30.02,WNW,296,5.9,10.9,79,0.00,,,0.00,0.73,VWS V14.01,2013-11-07 05:37:00,
2013-11-07 00:38:00,41.3,35.2,30.03,NW,318,10.2,10.9,79,0.00,,,0.00,0.00,VWS V14.01,2013-11-07 05:38:00,
2013-11-07 00:39:00,41.2,35.0,30.03,North,0,9.3,10.2,78,0.00,,,0.00,0.06,VWS V14.01,2013-11-07 05:39:00,
2013-11-07 00:40:00,41.5,35.1,30.03,NW,308,10.9,10.9,78,0.00,,,0.00,0.00,VWS V14.01,2013-11-07 05:40:00,
2013-11-07 00:42:00,41.2,34.7,30.04,NW,324,9.3,10.0,77,0.00,,,0.00,0.00,VWS V14.01,2013-11-07 05:42:00,
2013-11-07 00:43:00,41.2,34.7,30.04,NW,325,8.3,9.9,77,0.00,,,0.00,0.00,VWS V14.01,2013-11-07 05:43:00,
2013-11-07 00:45:00,41.5,35.0,30.03,NW,309,13.8,13.8,78,0.00,,,0.00,0.00,VWS V14.01,2013-11-07 05:45:00,
2013-11-07 00:46:00,41.3,34.8,30.03,NW,315,8.5,11.6,77,0.00,,,0.00,0.00,VWS V14.01,2013-11-07 05:46:00,
2013-11-07 00:47:00,41.4,35.1,30.03,NW,321,10.4,12.8,78,0.00,,,0.00,0.00,VWS V14.01,2013-11-07 05:47:00,
2013-11-07 00:48:00,41.6,35.2,30.03,NW,310,11.9,11.9,78,0.00,,,0.00,0.00,VWS V14.01,2013-11-07 05:48:00,
2013-11-07 00:49:00,41.2,34.9,30.03,NW,313,6.4,11.9,78,0.00,,,0.00,0.43,VWS V14.01,2013-11-07 05:49:00,
2013-11-07 00:51:00,41.5,35.0,30.03,WNW,303,10.7,10.7,77,0.00,,,0.00,0.00,VWS V14.01,2013-11-07 05:51:00,
2013-11-07 00:52:00,41.4,34.9,30.04,NNW,335,10.0,10.7,78,0.00,,,0.00,0.00,VWS V14.01,2013-11-07 05:52:00,
2013-11-07 00:54:00,41.3,35.0,30.04,NW,310,8.5,9.0,78,0.00,,,0.00,0.00,VWS V14.01,2013-11-07 05:54:00,
2013-11-07 00:55:00,41.3,34.5,30.04,WNW,291,9.3,12.6,77,0.00,,,0.00,0.00,VWS V14.01,2013-11-07 05:55:00,
2013-11-07 00:56:00,41.3,34.5,30.04,WNW,291,9.3,12.6,77,0.00,,,0.00,0.00,VWS V14.01,2013-11-07 05:56:00,
2013-11-07 00:58:00,41.5,34.4,30.04,WNW,301,11.9,13.3,76,0.00,,,0.00,0.00,VWS V14.01,2013-11-07 05:58:00,
2013-11-07 01:01:00,41.4,34.1,30.04,NW,306,10.0,13.3,75,0.00,,,0.00,0.06,VWS V14.01,2013-11-07 06:01:00,
2013-11-07 01:02:00,41.3,34.2,30.03,NW,322,9.2,11.2,76,0.00,,,0.00,0.12,VWS V14.01,2013-11-07 06:02:00,
2013-11-07 01:03:00,41.3,34.2,30.03,NW,322,9.2,11.2,76,0.00,,,0.00,0.12,VWS V14.01,2013-11-07 06:03:00,
2013-11-07 01:05:00,41.1,34.3,30.03,WNW,294,8.8,8.8,77,0.00,,,0.00,0.12,VWS V14.01,2013-11-07 06:05:00,
2013-11-07 01:07:00,41.3,34.4,30.03,NNW,334,10.9,10.9,76,0.00,,,0.00,0.00,VWS V14.01,2013-11-07 06:07:00,
2013-11-07 01:08:00,41.3,34.2,30.03,NNW,342,8.5,9.7,76,0.00,,,0.00,0.00,VWS V14.01,2013-11-07 06:08:00,
2013-11-07 01:10:00,41.4,34.1,30.03,NW,317,10.2,10.2,75,0.00,,,0.00,0.00,VWS V14.01,2013-11-07 06:10:00,
2013-11-07 01:11:00,41.3,34.3,30.02,NW,317,12.8,12.8,76,0.00,,,0.00,0.00,VWS V14.01,2013-11-07 06:11:00,
2013-11-07 01:12:00,41.2,34.0,30.02,NW,308,9.7,12.8,76,0.00,,,0.00,0.00,VWS V14.01,2013-11-07 06:12:00,
2013-11-07 01:13:00,41.1,34.0,30.02,NW,305,7.1,9.7,76,0.00,,,0.00,0.00,VWS V14.01,2013-11-07 06:13:00,
2013-11-07 01:15:00,41.0,34.3,30.06,NW,312,5.9,8.1,77,0.00,,,0.00,0.12,VWS V14.01,2013-11-07 06:15:00,
2013-11-07 01:17:00,41.0,34.6,30.03,WNW,303,5.9,5.9,78,0.00,,,0.00,0.00,VWS V14.01,2013-11-07 06:17:00,
2013-11-07 01:18:00,40.8,34.5,30.03,NW,321,5.9,5.9,78,0.00,,,0.00,0.00,VWS V14.01,2013-11-07 06:18:00,
2013-11-07 01:19:00,40.8,34.5,30.03,NW,321,5.9,5.9,78,0.00,,,0.00,0.00,VWS V14.01,2013-11-07 06:19:00,
2013-11-07 01:20:00,41.0,34.7,30.03,NW,318,6.6,6.6,78,0.00,,,0.00,0.43,VWS V14.01,2013-11-07 06:20:00,
2013-11-07 01:22:00,40.9,34.4,30.02,NW,323,5.9,9.3,77,0.00,,,0.00,0.00,VWS V14.01,2013-11-07 06:22:00,
2013-11-07 01:23:00,40.9,34.4,30.02,NW,323,5.9,9.3,77,0.00,,,0.00,0.00,VWS V14.01,2013-11-07 06:23:00,
2013-11-07 01:24:00,40.8,34.3,30.04,NW,325,5.2,7.3,77,0.00,,,0.00,0.00,VWS V14.01,2013-11-07 06:24:00,
2013-11-07 01:25:00,40.4,34.1,30.03,NNW,330,5.2,5.2,78,0.00,,,0.00,0.00,VWS V14.01,2013-11-07 06:25:00,
2013-11-07 01:26:00,40.7,34.5,30.03,NW,318,5.2,7.5,78,0.00,,,0.00,0.00,VWS V14.01,2013-11-07 06:26:00,
2013-11-07 01:27:00,40.8,34.7,30.03,WNW,301,6.6,6.6,79,0.00,,,0.00,0.73,VWS V14.01,2013-11-07 06:27:00,
2013-11-07 01:28:00,40.4,34.4,30.03,NW,313,4.2,5.2,79,0.00,,,0.00,0.12,VWS V14.01,2013-11-07 06:28:00,
2013-11-07 01:29:00,40.4,34.4,30.03,NW,313,4.2,5.2,79,0.00,,,0.00,0.12,VWS V14.01,2013-11-07 06:29:00,
2013-11-07 01:31:00,40.7,34.7,30.03,WNW,301,5.2,7.1,79,0.00,,,0.00,0.00,VWS V14.01,2013-11-07 06:31:00,
2013-11-07 01:32:00,40.6,34.8,30.04,NW,310,5.6,5.6,79,0.00,,,0.00,0.00,VWS V14.01,2013-11-07 06:32:00,
2013-11-07 01:33:00,40.6,35.0,30.05,NW,315,4.4,4.4,80,0.00,,,0.00,0.00,VWS V14.01,2013-11-07 06:33:00,
2013-11-07 01:34:00,40.9,35.3,30.04,WNW,303,5.6,5.6,80,0.00,,,0.00,0.00,VWS V14.01,2013-11-07 06:34:00,
2013-11-07 01:35:00,40.8,35.1,30.04,NW,312,4.7,5.6,80,0.00,,,0.00,0.00,VWS V14.01,2013-11-07 06:35:00,
2013-11-07 01:36:00,40.8,35.0,30.05,WNW,300,4.7,4.7,80,0.00,,,0.00,0.00,VWS V14.01,2013-11-07 06:36:00,
2013-11-07 01:38:00,41.0,33.7,30.05,NW,325,6.4,6.4,75,0.00,,,0.00,0.00,VWS V14.01,2013-11-07 06:38:00,
2013-11-07 01:39:00,41.2,35.5,30.05,NW,304,8.7,8.7,80,0.00,,,0.00,0.00,VWS V14.01,2013-11-07 06:39:00,
2013-11-07 01:41:00,40.8,34.8,30.04,WNW,299,7.8,7.8,79,0.00,,,0.00,0.00,VWS V14.01,2013-11-07 06:41:00,
2013-11-07 01:42:00,40.9,35.0,30.05,WNW,298,5.7,7.8,79,0.00,,,0.00,0.00,VWS V14.01,2013-11-07 06:42:00,
2013-11-07 01:45:00,41.0,35.0,30.06,NW,311,6.1,6.4,79,0.00,,,0.00,0.73,VWS V14.01,2013-11-07 06:45:00,
2013-11-07 01:46:00,41.0,35.1,30.04,NW,309,7.6,7.6,79,0.00,,,0.00,0.00,VWS V14.01,2013-11-07 06:46:00,
2013-11-07 01:48:00,41.0,35.2,30.05,West,281,8.1,8.1,79,0.00,,,0.00,0.00,VWS V14.01,2013-11-07 06:48:00,
2013-11-07 01:51:00,41.0,35.2,30.05,WNW,296,6.6,6.8,80,0.00,,,0.00,0.00,VWS V14.01,2013-11-07 06:51:00,
2013-11-07 01:53:00,40.9,35.1,30.05,WNW,300,7.5,7.5,79,0.00,,,0.00,0.00,VWS V14.01,2013-11-07 06:53:00,
2013-11-07 01:54:00,40.9,35.2,30.06,West,276,5.1,5.1,80,0.00,,,0.00,0.00,VWS V14.01,2013-11-07 06:54:00,
2013-11-07 01:55:00,40.8,35.2,30.06,West,275,5.2,7.1,80,0.00,,,0.00,0.00,VWS V14.01,2013-11-07 06:55:00,
2013-11-07 01:56:00,40.8,35.4,30.06,West,281,4.7,5.2,81,0.00,,,0.00,0.00,VWS V14.01,2013-11-07 06:56:00,
2013-11-07 01:57:00,40.7,35.4,30.04,NW,307,3.0,4.0,81,0.00,,,0.00,0.00,VWS V14.01,2013-11-07 06:57:00,
2013-11-07 01:58:00,41.0,35.2,30.05,WNW,287,9.9,9.9,80,0.00,,,0.00,0.00,VWS V14.01,2013-11-07 06:58:00,
2013-11-07 01:59:00,40.8,34.9,30.05,WNW,296,6.3,9.9,79,0.00,,,0.00,0.00,VWS V14.01,2013-11-07 06:59:00,
2013-11-07 02:02:00,40.9,35.1,30.06,WNW,285,10.0,10.0,80,0.00,,,0.00,0.00,VWS V14.01,2013-11-07 07:02:00,
2013-11-07 02:03:00,40.8,35.0,30.06,WNW,291,9.2,9.2,80,0.00,,,0.00,0.00,VWS V14.01,2013-11-07 07:03:00,
2013-11-07 02:04:00,40.6,34.8,30.05,West,280,6.4,9.2,80,0.00,,,0.00,0.00,VWS V14.01,2013-11-07 07:04:00,
2013-11-07 02:05:00,40.7,34.9,30.05,WNW,291,7.3,7.3,80,0.00,,,0.00,0.00,VWS V14.01,2013-11-07 07:05:00,
2013-11-07 02:07:00,40.5,35.0,30.06,WNW,296,6.3,9.5,81,0.00,,,0.00,0.00,VWS V14.01,2013-11-07 07:07:00,
2013-11-07 02:08:00,40.5,35.2,30.06,WNW,283,6.1,9.5,81,0.00,,,0.00,0.00,VWS V14.01,2013-11-07 07:08:00,
2013-11-07 02:09:00,40.5,35.0,30.05,WNW,293,5.1,6.3,81,0.00,,,0.00,0.00,VWS V14.01,2013-11-07 07:09:00,
2013-11-07 02:10:00,40.5,35.1,30.06,WNW,292,8.3,10.0,81,0.00,,,0.00,0.00,VWS V14.01,2013-11-07 07:10:00,
2013-11-07 02:11:00,40.5,35.0,30.06,NW,305,6.9,10.0,81,0.00,,,0.00,0.00,VWS V14.01,2013-11-07 07:11:00,
2013-11-07 02:13:00,40.3,34.8,30.05,NW,307,5.7,7.8,81,0.00,,,0.00,0.00,VWS V14.01,2013-11-07 07:13:00,
2013-11-07 02:14:00,40.4,34.9,30.05,NW,312,7.1,7.1,81,0.00,,,0.00,0.00,VWS V14.01,2013-11-07 07:14:00,
2013-11-07 02:15:00,40.6,35.2,30.05,West,280,9.2,9.2,81,0.00,,,0.00,0.00,VWS V14.01,2013-11-07 07:15:00,
2013-11-07 02:18:00,40.4,34.9,30.05,NW,311,6.8,6.8,81,0.00,,,0.00,0.00,VWS V14.01,2013-11-07 07:18:00,
2013-11-07 02:19:00,40.4,35.0,30.06,WNW,301,6.6,6.8,81,0.00,,,0.00,0.00,VWS V14.01,2013-11-07 07:19:00,
2013-11-07 02:21:00,40.4,35.1,30.06,WNW,299,7.6,7.6,81,0.00,,,0.00,0.00,VWS V14.01,2013-11-07 07:21:00,
2013-11-07 02:24:00,40.4,34.8,30.05,NW,314,7.5,7.5,80,0.00,,,0.00,0.00,VWS V14.01,2013-11-07 07:24:00,
2013-11-07 02:25:00,40.4,34.8,30.05,NW,314,7.5,7.5,80,0.00,,,0.00,0.00,VWS V14.01,2013-11-07 07:25:00,
2013-11-07 02:26:00,40.3,35.0,30.05,NNW,338,9.2,9.2,81,0.00,,,0.00,0.00,VWS V14.01,2013-11-07 07:26:00,
2013-11-07 02:28:00,40.2,34.8,30.06,WNW,293,6.8,7.6,81,0.00,,,0.00,0.00,VWS V14.01,2013-11-07 07:28:00,
2013-11-07 02:29:00,40.4,35.0,30.05,WNW,284,9.5,9.5,81,0.00,,,0.00,0.00,VWS V14.01,2013-11-07 07:29:00,
2013-11-07 02:30:00,40.1,34.8,30.06,NW,308,5.2,9.5,81,0.00,,,0.00,0.43,VWS V14.01,2013-11-07 07:30:00,
2013-11-07 02:31:00,40.3,35.0,30.06,NW,312,10.0,10.0,81,0.00,,,0.00,0.00,VWS V14.01,2013-11-07 07:31:00,
2013-11-07 02:32:00,40.3,34.9,30.05,NW,318,7.5,8.0,81,0.00,,,0.00,0.12,VWS V14.01,2013-11-07 07:32:00,
2013-11-07 02:34:00,40.2,35.0,30.05,WNW,290,4.5,6.1,81,0.00,,,0.00,0.00,VWS V14.01,2013-11-07 07:34:00,
2013-11-07 02:36:00,40.2,34.6,30.05,NW,319,7.8,7.8,80,0.00,,,0.00,0.00,VWS V14.01,2013-11-07 07:36:00,
2013-11-07 02:37:00,40.2,34.8,30.08,NW,310,9.0,9.2,81,0.00,,,0.00,0.00,VWS V14.01,2013-11-07 07:37:00,
2013-11-07 02:39:00,40.2,34.5,30.05,WNW,291,7.8,7.8,80,0.00,,,0.00,0.00,VWS V14.01,2013-11-07 07:39:00,
2013-11-07 02:41:00,40.1,34.5,30.06,NW,317,7.6,7.8,80,0.00,,,0.00,0.43,VWS V14.01,2013-11-07 07:41:00,
2013-11-07 02:43:00,40.2,34.5,30.06,WNW,294,7.6,8.8,80,0.00,,,0.00,0.00,VWS V14.01,2013-11-07 07:43:00,
2013-11-07 02:44:00,40.1,34.3,30.10,WNW,290,9.3,9.3,80,0.00,,,0.00,0.00,VWS V14.01,2013-11-07 07:44:00,
2013-11-07 02:45:00,40.1,34.3,30.05,WNW,285,7.3,9.3,79,0.00,,,0.00,0.00,VWS V14.01,2013-11-07 07:45:00,
2013-11-07 02:48:00,40.0,34.5,30.05,NW,307,8.7,8.8,80,0.00,,,0.00,0.00,VWS V14.01,2013-11-07 07:48:00,
2013-11-07 02:49:00,39.9,34.4,30.05,WNW,300,7.1,8.7,81,0.00,,,0.00,0.00,VWS V14.01,2013-11-07 07:49:00,
2013-11-07 02:51:00,39.8,34.4,30.05,NW,313,6.3,8.0,81,0.00,,,0.00,0.00,VWS V14.01,2013-11-07 07:51:00,
2013-11-07 02:53:00,39.9,34.5,30.06,WNW,299,7.6,7.6,81,0.00,,,0.00,0.00,VWS V14.01,2013-11-07 07:53:00,
2013-11-07 02:54:00,39.3,34.0,30.06,WNW,294,4.4,7.6,81,0.00,,,0.00,0.00,VWS V14.01,2013-11-07 07:54:00,
2013-11-07 02:56:00,39.3,34.5,30.06,NW,310,5.2,6.3,83,0.00,,,0.00,0.00,VWS V14.01,2013-11-07 07:56:00,
2013-11-07 02:58:00,39.4,34.6,30.06,NW,309,6.3,6.9,83,0.00,,,0.00,0.00,VWS V14.01,2013-11-07 07:58:00,
2013-11-07 02:59:00,39.1,34.3,30.05,WNW,296,6.8,7.1,83,0.00,,,0.00,0.00,VWS V14.01,2013-11-07 07:59:00,
2013-11-07 03:00:00,39.2,34.5,30.06,WNW,299,4.5,6.8,83,0.00,,,0.00,0.00,VWS V14.01,2013-11-07 08:00:00,
2013-11-07 03:01:00,39.2,34.5,30.06,WNW,299,4.5,6.8,83,0.00,,,0.00,0.00,VWS V14.01,2013-11-07 08:01:00,
2013-11-07 03:03:00,39.9,35.2,30.05,NW,307,6.6,6.8,83,0.00,,,0.00,0.12,VWS V14.01,2013-11-07 08:03:00,
2013-11-07 03:04:00,39.7,35.0,30.06,WNW,299,6.4,6.6,83,0.00,,,0.00,0.00,VWS V14.01,2013-11-07 08:04:00,
2013-11-07 03:05:00,39.4,34.6,30.06,NW,326,5.4,6.4,83,0.00,,,0.00,0.00,VWS V14.01,2013-11-07 08:05:00,
2013-11-07 03:06:00,39.3,34.5,30.06,WNW,292,6.1,6.4,83,0.00,,,0.00,0.00,VWS V14.01,2013-11-07 08:06:00,
2013-11-07 03:08:00,39.6,35.2,30.06,WNW,298,4.2,5.9,84,0.00,,,0.00,0.73,VWS V14.01,2013-11-07 08:08:00,
2013-11-07 03:09:00,39.6,35.2,30.06,WNW,302,5.2,5.9,84,0.00,,,0.00,0.00,VWS V14.01,2013-11-07 08:09:00,
2013-11-07 03:10:00,39.5,35.2,30.06,NW,311,3.4,5.2,84,0.00,,,0.00,0.00,VWS V14.01,2013-11-07 08:10:00,
2013-11-07 03:11:00,39.8,35.5,30.05,NW,313,6.4,6.4,84,0.00,,,0.00,0.00,VWS V14.01,2013-11-07 08:11:00,
2013-11-07 03:13:00,39.6,35.3,30.06,WNW,303,4.9,4.9,84,0.00,,,0.00,0.00,VWS V14.01,2013-11-07 08:13:00,
2013-11-07 03:15:00,39.5,35.2,30.06,NW,315,3.7,3.7,84,0.00,,,0.00,0.00,VWS V14.01,2013-11-07 08:15:00,
2013-11-07 03:17:00,39.5,35.2,30.05,NW,325,5.9,5.9,84,0.00,,,0.00,0.00,VWS V14.01,2013-11-07 08:17:00,
2013-11-07 03:20:00,39.7,35.3,30.10,NNW,330,5.9,5.9,84,0.00,,,0.00,0.00,VWS V14.01,2013-11-07 08:20:00,
2013-11-07 03:21:00,39.5,35.1,30.07,NW,309,3.2,5.9,84,0.00,,,0.00,0.00,VWS V14.01,2013-11-07 08:21:00,
2013-11-07 03:24:00,39.8,35.4,30.06,NW,311,7.5,7.5,84,0.00,,,0.00,0.00,VWS V14.01,2013-11-07 08:24:00,
2013-11-07 03:25:00,39.7,35.3,30.06,WNW,290,5.7,5.7,84,0.00,,,0.00,0.00,VWS V14.01,2013-11-07 08:25:00,
2013-11-07 03:26:00,39.7,35.0,30.06,WNW,303,5.9,7.3,83,0.00,,,0.00,0.00,VWS V14.01,2013-11-07 08:26:00,
2013-11-07 03:27:00,39.5,34.9,30.05,WNW,294,4.2,5.9,83,0.00,,,0.00,0.00,VWS V14.01,2013-11-07 08:27:00,
2013-11-07 03:29:00,39.5,34.9,30.05,WNW,296,4.5,6.6,84,0.00,,,0.00,0.00,VWS V14.01,2013-11-07 08:29:00,
2013-11-07 03:30:00,39.5,34.9,30.05,WNW,296,4.5,6.6,84,0.00,,,0.00,0.00,VWS V14.01,2013-11-07 08:30:00,
2013-11-07 03:31:00,39.6,35.1,30.05,NW,311,5.7,5.7,84,0.00,,,0.00,0.00,VWS V14.01,2013-11-07 08:31:00,
2013-11-07 03:32:00,39.8,35.0,30.05,NW,311,6.8,8.1,83,0.00,,,0.00,0.00,VWS V14.01,2013-11-07 08:32:00,
2013-11-07 03:33:00,39.9,35.0,30.06,West,271,8.5,8.5,82,0.00,,,0.00,0.43,VWS V14.01,2013-11-07 08:33:00,
2013-11-07 03:35:00,39.8,34.6,30.05,WNW,296,9.3,9.3,82,0.00,,,0.00,0.00,VWS V14.01,2013-11-07 08:35:00,
2013-11-07 03:36:00,39.7,34.8,30.05,NW,306,6.9,6.9,82,0.00,,,0.00,0.00,VWS V14.01,2013-11-07 08:36:00,
2013-11-07 03:37:00,39.8,35.0,30.05,NW,309,6.9,6.9,82,0.00,,,0.00,0.00,VWS V14.01,2013-11-07 08:37:00,
2013-11-07 03:40:00,39.6,34.8,30.06,NNW,331,4.2,5.1,83,0.00,,,0.00,0.00,VWS V14.01,2013-11-07 08:40:00,
2013-11-07 03:41:00,39.9,34.9,30.05,NW,306,7.8,8.8,82,0.00,,,0.00,0.00,VWS V14.01,2013-11-07 08:41:00,
2013-11-07 03:42:00,39.8,34.7,30.05,NW,316,6.3,7.8,82,0.00,,,0.00,0.43,VWS V14.01,2013-11-07 08:42:00,
2013-11-07 03:43:00,39.8,34.7,30.05,NW,316,6.3,7.8,82,0.00,,,0.00,0.43,VWS V14.01,2013-11-07 08:43:00,
2013-11-07 03:44:00,39.8,34.8,30.06,WNW,291,6.4,6.4,82,0.00,,,0.00,0.43,VWS V14.01,2013-11-07 08:44:00,
2013-11-07 03:45:00,39.8,34.8,30.06,WNW,291,6.4,6.4,82,0.00,,,0.00,0.43,VWS V14.01,2013-11-07 08:45:00,
2013-11-07 03:46:00,40.0,34.6,30.06,West,274,8.0,9.3,81,0.00,,,0.00,0.00,VWS V14.01,2013-11-07 08:46:00,
2013-11-07 03:48:00,39.8,34.2,30.06,NW,312,5.7,8.8,80,0.00,,,0.00,0.00,VWS V14.01,2013-11-07 08:48:00,
2013-11-07 03:49:00,39.8,34.3,30.06,NW,312,5.7,5.7,80,0.00,,,0.00,0.00,VWS V14.01,2013-11-07 08:49:00,
2013-11-07 03:50:00,39.8,34.4,30.06,West,281,4.0,5.7,81,0.00,,,0.00,0.73,VWS V14.01,2013-11-07 08:50:00,
2013-11-07 03:52:00,39.9,34.2,30.06,WNW,302,6.3,6.3,80,0.00,,,0.00,0.00,VWS V14.01,2013-11-07 08:52:00,
2013-11-07 03:54:00,40.0,34.3,30.09,NW,316,6.6,7.3,80,0.00,,,0.00,0.00,VWS V14.01,2013-11-07 08:54:00,
2013-11-07 03:55:00,39.9,34.2,30.07,NW,308,6.1,6.6,80,0.00,,,0.00,0.00,VWS V14.01,2013-11-07 08:55:00,
2013-11-07 03:58:00,40.0,33.9,30.05,WNW,286,6.8,6.8,79,0.00,,,0.00,0.00,VWS V14.01,2013-11-07 08:58:00,
2013-11-07 03:59:00,40.1,33.8,30.06,NW,316,9.5,9.5,78,0.00,,,0.00,0.00,VWS V14.01,2013-11-07 08:59:00,
2013-11-07 04:00:00,39.9,33.3,30.06,NW,309,4.7,9.5,77,0.00,,,0.00,0.00,VWS V14.01,2013-11-07 09:00:00,
2013-11-07 04:02:00,40.0,33.7,30.06,NNW,336,7.1,7.1,78,0.00,,,0.00,0.00,VWS V14.01,2013-11-07 09:02:00,
2013-11-07 04:05:00,40.0,33.7,30.06,West,280,8.3,8.3,78,0.00,,,0.00,0.00,VWS V14.01,2013-11-07 09:05:00,
2013-11-07 04:06:00,39.9,33.7,30.06,NW,319,7.6,7.6,78,0.00,,,0.00,0.00,VWS V14.01,2013-11-07 09:06:00,
2013-11-07 04:07:00,39.9,33.7,30.06,NW,319,7.6,7.6,78,0.00,,,0.00,0.00,VWS V14.01,2013-11-07 09:07:00,
2013-11-07 04:09:00,40.0,33.2,30.07,NNW,328,6.1,9.3,77,0.00,,,0.00,0.00,VWS V14.01,2013-11-07 09:09:00,
2013-11-07 04:13:00,39.9,32.4,30.06,NNW,333,3.0,3.9,74,0.00,,,0.00,0.00,VWS V14.01,2013-11-07 09:13:00,
2013-11-07 04:14:00,39.8,32.3,30.06,NW,318,3.4,4.7,74,0.00,,,0.00,0.00,VWS V14.01,2013-11-07 09:14:00,
2013-11-07 04:16:00,39.6,31.8,30.07,NNW,333,4.4,6.4,73,0.00,,,0.00,0.00,VWS V14.01,2013-11-07 09:16:00,
2013-11-07 04:18:00,39.6,31.6,30.07,NW,318,4.9,7.5,73,0.00,,,0.00,0.00,VWS V14.01,2013-11-07 09:18:00,
2013-11-07 04:19:00,39.8,31.3,30.06,NW,309,6.4,6.4,71,0.00,,,0.00,0.00,VWS V14.01,2013-11-07 09:19:00,
2013-11-07 04:20:00,39.9,31.1,30.06,NW,320,6.4,6.4,70,0.00,,,0.00,0.00,VWS V14.01,2013-11-07 09:20:00,
2013-11-07 04:23:00,39.9,29.7,30.07,WNW,290,10.4,10.5,67,0.00,,,0.00,0.00,VWS V14.01,2013-11-07 09:23:00,
2013-11-07 04:25:00,39.8,29.2,30.09,NW,308,11.6,11.6,66,0.00,,,0.00,0.00,VWS V14.01,2013-11-07 09:25:00,
2013-11-07 04:27:00,39.4,27.8,30.08,NW,314,10.0,11.7,63,0.00,,,0.00,0.00,VWS V14.01,2013-11-07 09:27:00,
2013-11-07 04:28:00,38.9,27.8,30.07,WNW,302,6.9,6.9,64,0.00,,,0.00,0.00,VWS V14.01,2013-11-07 09:28:00,
2013-11-07 04:29:00,39.6,28.2,30.07,WNW,301,11.4,11.4,64,0.00,,,0.00,0.00,VWS V14.01,2013-11-07 09:29:00,
2013-11-07 04:30:00,39.2,27.5,30.07,WNW,298,6.6,11.4,63,0.00,,,0.00,0.06,VWS V14.01,2013-11-07 09:30:00,
2013-11-07 04:31:00,39.1,27.9,30.07,NW,315,7.1,7.1,64,0.00,,,0.00,0.73,VWS V14.01,2013-11-07 09:31:00,
2013-11-07 04:34:00,38.8,28.0,30.08,NW,311,8.1,8.1,65,0.00,,,0.00,0.00,VWS V14.01,2013-11-07 09:34:00,
2013-11-07 04:35:00,38.5,27.8,30.08,NW,314,6.1,8.1,65,0.00,,,0.00,0.00,VWS V14.01,2013-11-07 09:35:00,
2013-11-07 04:36:00,38.3,28.1,30.08,NW,305,5.1,6.1,66,0.00,,,0.00,0.00,VWS V14.01,2013-11-07 09:36:00,
2013-11-07 04:37:00,38.7,28.2,30.08,WNW,284,6.9,6.9,65,0.00,,,0.00,0.00,VWS V14.01,2013-11-07 09:37:00,
2013-11-07 04:40:00,38.6,27.6,30.08,WNW,294,6.8,8.3,64,0.00,,,0.00,0.00,VWS V14.01,2013-11-07 09:40:00,
2013-11-07 04:42:00,38.9,27.7,30.09,NW,322,10.2,10.2,64,0.00,,,0.00,0.43,VWS V14.01,2013-11-07 09:42:00,
2013-11-07 04:45:00,38.3,27.4,30.08,NW,312,6.4,6.4,64,0.00,,,0.00,0.00,VWS V14.01,2013-11-07 09:45:00,
2013-11-07 04:46:00,38.1,27.5,30.09,NW,323,6.6,6.6,65,0.00,,,0.00,0.00,VWS V14.01,2013-11-07 09:46:00,
2013-11-07 04:47:00,38.2,27.6,30.08,NW,314,5.2,7.8,65,0.00,,,0.00,0.00,VWS V14.01,2013-11-07 09:47:00,
2013-11-07 04:48:00,38.6,28.0,30.08,NW,309,8.3,8.3,65,0.00,,,0.00,0.00,VWS V14.01,2013-11-07 09:48:00,
2013-11-07 04:50:00,38.5,27.2,30.09,NW,317,6.6,6.8,64,0.00,,,0.00,0.00,VWS V14.01,2013-11-07 09:50:00,
2013-11-07 04:51:00,38.8,27.0,30.09,NW,318,9.3,9.3,62,0.00,,,0.00,0.00,VWS V14.01,2013-11-07 09:51:00,
2013-11-07 04:52:00,38.7,26.6,30.08,WNW,302,7.8,7.8,61,0.00,,,0.00,0.00,VWS V14.01,2013-11-07 09:52:00,
2013-11-07 04:53:00,38.6,26.7,30.08,NW,325,7.1,7.8,62,0.00,,,0.00,0.00,VWS V14.01,2013-11-07 09:53:00,
2013-11-07 04:54:00,38.7,26.5,30.08,NW,326,7.1,7.1,61,0.00,,,0.00,0.00,VWS V14.01,2013-11-07 09:54:00,
2013-11-07 04:55:00,38.8,24.3,30.09,NW,326,5.9,7.1,56,0.00,,,0.00,0.00,VWS V14.01,2013-11-07 09:55:00,
2013-11-07 04:57:00,38.5,26.0,30.08,North,2,7.3,11.6,60,0.00,,,0.00,0.00,VWS V14.01,2013-11-07 09:57:00,
2013-11-07 04:58:00,38.8,26.1,30.09,NW,314,9.2,9.5,60,0.00,,,0.00,0.00,VWS V14.01,2013-11-07 09:58:00,
2013-11-07 04:59:00,38.6,25.9,30.09,NNW,330,7.3,9.2,60,0.00,,,0.00,0.43,VWS V14.01,2013-11-07 09:59:00,
2013-11-07 05:00:00,38.8,26.2,30.08,NNW,330,9.0,9.0,60,0.00,,,0.00,0.00,VWS V14.01,2013-11-07 10:00:00,
2013-11-07 05:01:00,38.5,25.8,30.09,NNW,327,10.2,10.2,60,0.00,,,0.00,0.00,VWS V14.01,2013-11-07 10:01:00,
2013-11-07 05:03:00,38.5,25.9,30.09,NW,316,7.8,8.0,60,0.00,,,0.00,0.00,VWS V14.01,2013-11-07 10:03:00,
2013-11-07 05:04:00,38.1,25.9,30.08,NNW,329,6.3,6.3,61,0.00,,,0.00,0.00,VWS V14.01,2013-11-07 10:04:00,
2013-11-07 05:06:00,38.2,22.6,30.09,NW,312,8.8,9.2,53,0.00,,,0.00,0.00,VWS V14.01,2013-11-07 10:06:00,
2013-11-07 05:08:00,38.2,26.4,30.09,NW,317,9.2,9.2,62,0.00,,,0.00,0.00,VWS V14.01,2013-11-07 10:08:00,
2013-11-07 05:09:00,37.8,26.5,30.09,NW,326,7.3,7.3,63,0.00,,,0.00,0.00,VWS V14.01,2013-11-07 10:09:00,
2013-11-07 05:10:00,38.1,26.8,30.09,NNW,328,7.1,7.3,63,0.00,,,0.00,0.00,VWS V14.01,2013-11-07 10:10:00,
2013-11-07 05:11:00,37.4,26.6,30.09,NW,326,5.1,7.3,64,0.00,,,0.00,0.00,VWS V14.01,2013-11-07 10:11:00,
2013-11-07 05:13:00,37.5,26.8,30.09,West,281,5.9,7.5,65,0.00,,,0.00,0.00,VWS V14.01,2013-11-07 10:13:00,
2013-11-07 05:14:00,37.0,26.5,30.09,NW,307,3.4,5.9,65,0.00,,,0.00,0.00,VWS V14.01,2013-11-07 10:14:00,
2013-11-07 05:16:00,38.1,27.8,30.09,WNW,297,8.0,8.0,66,0.00,,,0.00,0.00,VWS V14.01,2013-11-07 10:16:00,
2013-11-07 05:17:00,37.8,27.2,30.09,WNW,300,9.2,9.2,66,0.00,,,0.00,0.00,VWS V14.01,2013-11-07 10:17:00,
2013-11-07 05:19:00,37.8,27.1,30.09,NW,325,8.3,10.0,65,0.00,,,0.00,0.00,VWS V14.01,2013-11-07 10:19:00,
2013-11-07 05:20:00,37.5,26.8,30.09,WNW,294,7.8,10.0,65,0.00,,,0.00,0.00,VWS V14.01,2013-11-07 10:20:00,
2013-11-07 05:22:00,37.5,27.5,30.10,NW,306,6.8,6.8,67,0.00,,,0.00,0.00,VWS V14.01,2013-11-07 10:22:00,
2013-11-07 05:25:00,37.9,27.3,30.11,NW,308,16.0,16.0,65,0.00,,,0.00,0.00,VWS V14.01,2013-11-07 10:25:00,
2013-11-07 05:26:00,38.1,26.9,30.10,NW,313,14.3,14.3,64,0.00,,,0.00,0.43,VWS V14.01,2013-11-07 10:26:00,
2013-11-07 05:27:00,37.9,26.4,30.10,NW,310,10.0,12.6,63,0.00,,,0.00,0.00,VWS V14.01,2013-11-07 10:27:00,
2013-11-07 05:28:00,37.9,25.8,30.10,NW,326,11.4,16.5,62,0.00,,,0.00,0.00,VWS V14.01,2013-11-07 10:28:00,
2013-11-07 05:30:00,38.0,25.2,30.10,NNW,327,17.2,17.2,60,0.00,,,0.00,0.73,VWS V14.01,2013-11-07 10:30:00,
2013-11-07 05:31:00,38.0,24.9,30.10,NNW,328,15.5,17.2,59,0.00,,,0.00,0.00,VWS V14.01,2013-11-07 10:31:00,
2013-11-07 05:32:00,37.8,24.6,30.10,NNW,330,13.1,15.5,59,0.00,,,0.00,0.00,VWS V14.01,2013-11-07 10:32:00,
2013-11-07 05:33:00,37.8,24.5,30.10,NW,321,9.3,15.5,58,0.00,,,0.00,0.00,VWS V14.01,2013-11-07 10:33:00,
2013-11-07 05:37:00,37.6,22.9,30.11,NW,319,10.0,11.9,55,0.00,,,0.00,0.00,VWS V14.01,2013-11-07 10:37:00,
2013-11-07 05:38:00,37.5,21.8,30.11,NW,305,14.5,14.5,53,0.00,,,0.00,0.00,VWS V14.01,2013-11-07 10:38:00,
2013-11-07 05:39:00,37.5,21.5,30.11,NW,322,16.4,16.4,52,0.00,,,0.00,0.00,VWS V14.01,2013-11-07 10:39:00,
2013-11-07 05:40:00,37.2,21.6,30.11,NW,321,7.1,16.4,53,0.00,,,0.00,0.00,VWS V14.01,2013-11-07 10:40:00,
2013-11-07 05:42:00,37.0,19.3,30.12,NNW,332,12.6,12.6,48,0.00,,,0.00,0.00,VWS V14.01,2013-11-07 10:42:00,
2013-11-07 05:43:00,37.1,19.2,30.12,NNW,332,11.4,12.6,48,0.00,,,0.00,0.00,VWS V14.01,2013-11-07 10:43:00,
2013-11-07 05:45:00,36.6,18.6,30.11,North,350,8.7,17.0,48,0.00,,,0.00,0.00,VWS V14.01,2013-11-07 10:45:00,
2013-11-07 05:48:00,36.7,18.5,30.11,NW,317,13.5,13.5,47,0.00,,,0.00,0.00,VWS V14.01,2013-11-07 10:48:00,
2013-11-07 05:49:00,36.1,18.0,30.12,NW,304,6.3,13.1,47,0.00,,,0.00,0.00,VWS V14.01,2013-11-07 10:49:00,
2013-11-07 05:51:00,36.2,18.4,30.12,NW,325,13.5,14.3,48,0.00,,,0.00,0.00,VWS V14.01,2013-11-07 10:51:00,
2013-11-07 05:54:00,35.8,18.6,30.12,NNW,343,9.7,10.5,49,0.00,,,0.00,0.00,VWS V14.01,2013-11-07 10:54:00,
2013-11-07 05:55:00,35.7,18.4,30.12,NW,324,9.7,9.7,49,0.00,,,0.00,0.00,VWS V14.01,2013-11-07 10:55:00,
2013-11-07 05:57:00,35.6,18.1,30.13,NW,324,11.9,11.9,49,0.00,,,0.00,0.00,VWS V14.01,2013-11-07 10:57:00,
2013-11-07 06:00:00,35.5,18.6,30.12,North,0,6.6,11.4,50,0.00,,,0.00,0.00,VWS V14.01,2013-11-07 11:00:00,
2013-11-07 06:01:00,35.9,18.5,30.12,NNW,328,7.5,11.4,49,0.00,,,0.00,0.00,VWS V14.01,2013-11-07 11:01:00,
2013-11-07 06:02:00,35.9,18.5,30.12,NNW,328,7.5,11.4,49,0.00,,,0.00,0.00,VWS V14.01,2013-11-07 11:02:00,
2013-11-07 06:05:00,35.7,18.8,30.13,NW,322,9.2,9.2,50,0.00,,,0.00,0.00,VWS V14.01,2013-11-07 11:05:00,
2013-11-07 06:06:00,35.8,18.5,30.13,North,352,7.6,12.1,49,0.00,,,0.00,0.00,VWS V14.01,2013-11-07 11:06:00,
2013-11-07 06:08:00,35.5,18.9,30.13,NW,324,6.1,6.1,50,0.00,,,0.00,0.00,VWS V14.01,2013-11-07 11:08:00,
2013-11-07 06:10:00,35.9,19.2,30.13,NNW,331,8.5,8.5,50,0.00,,,0.00,0.00,VWS V14.01,2013-11-07 11:10:00,
2013-11-07 06:11:00,35.3,18.8,30.13,NNW,330,8.1,8.1,51,0.00,,,0.00,0.00,VWS V14.01,2013-11-07 11:11:00,
2013-11-07 06:12:00,35.4,18.9,30.13,NW,324,7.6,8.1,51,0.00,,,0.00,0.00,VWS V14.01,2013-11-07 11:12:00,
2013-11-07 06:13:00,35.4,19.2,30.13,WNW,293,6.1,7.6,51,0.00,,,0.00,0.00,VWS V14.01,2013-11-07 11:13:00,
2013-11-07 06:15:00,34.5,18.8,30.13,NNW,337,3.7,6.8,52,0.00,,,0.00,0.00,VWS V14.01,2013-11-07 11:15:00,
2013-11-07 06:17:00,35.6,19.5,30.13,NNW,328,6.3,6.3,52,0.00,,,0.00,0.00,VWS V14.01,2013-11-07 11:17:00,
2013-11-07 06:18:00,35.3,16.3,30.13,NW,318,6.4,6.4,45,0.00,,,0.00,0.00,VWS V14.01,2013-11-07 11:18:00,
2013-11-07 06:19:00,35.1,19.1,30.14,NNW,340,5.9,5.9,52,0.00,,,0.00,0.00,VWS V14.01,2013-11-07 11:19:00,
2013-11-07 06:21:00,34.7,18.9,30.14,NW,323,9.0,9.0,52,0.00,,,0.00,0.00,VWS V14.01,2013-11-07 11:21:00,
2013-11-07 06:23:00,35.2,19.5,30.14,NW,324,8.1,8.3,52,0.00,,,0.00,0.43,VWS V14.01,2013-11-07 11:23:00,
2013-11-07 06:24:00,35.2,18.7,30.13,NW,315,7.8,8.1,51,0.00,,,0.00,0.12,VWS V14.01,2013-11-07 11:24:00,
2013-11-07 06:25:00,34.5,19.2,30.14,WNW,300,5.7,6.6,53,0.00,,,0.00,0.00,VWS V14.01,2013-11-07 11:25:00,
2013-11-07 06:28:00,34.0,19.5,30.14,WNW,297,2.7,3.9,55,0.00,,,0.00,0.00,VWS V14.01,2013-11-07 11:28:00,
2013-11-07 06:29:00,34.1,19.9,30.14,NW,323,3.7,3.7,56,0.00,,,0.00,0.00,VWS V14.01,2013-11-07 11:29:00,
2013-11-07 06:30:00,34.8,20.5,30.14,NW,313,7.5,7.5,55,0.00,,,0.00,0.00,VWS V14.01,2013-11-07 11:30:00,
2013-11-07 06:31:00,34.8,20.3,30.13,NW,321,7.3,7.5,55,0.00,,,0.00,0.00,VWS V14.01,2013-11-07 11:31:00,
2013-11-07 06:34:00,34.4,20.4,30.14,NW,326,5.4,6.9,56,0.00,,,0.00,0.00,VWS V14.01,2013-11-07 11:34:00,
2013-11-07 06:35:00,34.4,20.4,30.14,NW,326,5.4,6.9,56,0.00,,,0.00,0.00,VWS V14.01,2013-11-07 11:35:00,
2013-11-07 06:36:00,34.4,20.6,30.14,NW,321,3.4,5.4,57,0.00,,,0.00,0.73,VWS V14.01,2013-11-07 11:36:00,
2013-11-07 06:37:00,34.0,20.4,30.14,NW,317,4.9,4.9,57,0.00,,,0.00,0.00,VWS V14.01,2013-11-07 11:37:00,
2013-11-07 06:39:00,34.1,20.7,30.14,NNW,328,5.4,5.4,58,0.00,,,0.00,0.00,VWS V14.01,2013-11-07 11:39:00,
2013-11-07 06:40:00,34.2,21.1,30.14,NNW,329,4.2,5.4,58,0.00,,,0.00,0.12,VWS V14.01,2013-11-07 11:40:00,
2013-11-07 06:42:00,34.2,17.4,30.15,NW,320,5.7,5.7,50,0.00,,,0.00,0.00,VWS V14.01,2013-11-07 11:42:00,
2013-11-07 06:43:00,34.8,21.2,30.14,NNW,327,5.7,5.7,57,0.00,,,0.00,0.00,VWS V14.01,2013-11-07 11:43:00,
2013-11-07 06:44:00,34.1,20.7,30.15,NW,313,4.5,4.5,58,0.00,,,0.00,0.00,VWS V14.01,2013-11-07 11:44:00,
2013-11-07 06:47:00,34.0,21.6,30.15,NW,323,5.4,5.4,60,0.00,,,0.00,0.00,VWS V14.01,2013-11-07 11:47:00,
2013-11-07 06:48:00,33.4,21.1,30.14,NNW,340,2.3,5.4,60,0.00,,,0.00,0.00,VWS V14.01,2013-11-07 11:48:00,
2013-11-07 06:49:00,34.3,22.1,30.15,NW,326,4.4,4.7,61,0.00,,,0.00,0.00,VWS V14.01,2013-11-07 11:49:00,
2013-11-07 06:51:00,33.8,21.6,30.14,NW,326,4.2,5.1,61,0.00,,,0.00,0.12,VWS V14.01,2013-11-07 11:51:00,
2013-11-07 06:53:00,33.8,21.7,30.15,NW,322,4.4,4.7,61,0.00,,,0.00,0.00,VWS V14.01,2013-11-07 11:53:00,
2013-11-07 06:54:00,34.0,22.0,30.15,NW,318,4.0,4.0,61,0.00,,,0.00,0.00,VWS V14.01,2013-11-07 11:54:00,
2013-11-07 06:55:00,33.7,21.9,30.15,NW,313,4.7,4.7,61,0.00,,,0.00,0.73,VWS V14.01,2013-11-07 11:55:00,
2013-11-07 06:57:00,33.4,21.6,30.19,WNW,287,3.7,4.2,62,0.00,,,0.00,0.00,VWS V14.01,2013-11-07 11:57:00,
2013-11-07 06:58:00,33.4,22.1,30.15,NW,319,3.2,3.2,63,0.00,,,0.00,0.00,VWS V14.01,2013-11-07 11:58:00,
2013-11-07 07:00:00,33.0,22.0,30.15,NW,312,3.5,4.4,64,0.00,,,0.00,0.00,VWS V14.01,2013-11-07 12:00:00,
2013-11-07 07:02:00,33.0,22.5,30.15,NW,310,3.0,3.7,65,0.00,,,0.00,0.06,VWS V14.01,2013-11-07 12:02:00,
2013-11-07 07:04:00,33.0,22.6,30.15,NW,312,3.2,3.5,65,0.00,,,0.00,0.06,VWS V14.01,2013-11-07 12:04:00,
2013-11-07 07:05:00,33.4,22.9,30.15,NNW,328,3.7,3.7,65,0.00,,,0.00,0.06,VWS V14.01,2013-11-07 12:05:00,
2013-11-07 07:06:00,33.1,22.6,30.15,NW,313,2.3,2.3,65,0.00,,,0.00,0.00,VWS V14.01,2013-11-07 12:06:00,
2013-11-07 07:07:00,33.1,22.8,30.15,NW,306,3.7,3.7,65,0.00,,,0.00,0.00,VWS V14.01,2013-11-07 12:07:00,
2013-11-07 07:08:00,32.7,22.6,30.20,NW,307,2.8,3.7,66,0.00,,,0.00,1.83,VWS V14.01,2013-11-07 12:08:00,
2013-11-07 07:10:00,33.2,23.3,30.15,NW,307,2.5,3.0,67,0.00,,,0.00,1.95,VWS V14.01,2013-11-07 12:10:00,
2013-11-07 07:11:00,33.2,23.3,30.15,NW,314,2.2,3.0,67,0.00,,,0.00,2.26,VWS V14.01,2013-11-07 12:11:00,
2013-11-07 07:13:00,32.9,23.0,30.15,NW,312,2.2,2.2,67,0.00,,,0.00,2.87,VWS V14.01,2013-11-07 12:13:00,
2013-11-07 07:16:00,33.1,23.4,30.16,NW,309,2.0,2.2,67,0.00,,,0.00,2.26,VWS V14.01,2013-11-07 12:16:00,
2013-11-07 07:17:00,32.5,22.9,30.17,NW,308,0.0,1.8,68,0.00,,,0.00,3.97,VWS V14.01,2013-11-07 12:17:00,
2013-11-07 07:18:00,33.1,23.7,30.16,NW,307,0.0,0.0,68,0.00,,,0.00,5.31,VWS V14.01,2013-11-07 12:18:00,
2013-11-07 07:19:00,32.6,22.0,30.16,NW,307,0.0,0.0,64,0.00,,,0.00,5.31,VWS V14.01,2013-11-07 12:19:00,
2013-11-07 07:20:00,32.5,23.5,30.16,NW,307,1.0,1.0,69,0.00,,,0.00,6.17,VWS V14.01,2013-11-07 12:20:00,
2013-11-07 07:21:00,32.6,23.6,30.16,NW,307,1.6,1.6,69,0.00,,,0.00,7.08,VWS V14.01,2013-11-07 12:21:00,
2013-11-07 07:22:00,32.2,23.6,30.16,WNW,291,1.8,2.5,70,0.00,,,0.00,6.59,VWS V14.01,2013-11-07 12:22:00,
2013-11-07 07:24:00,32.6,24.7,30.16,WNW,283,2.2,2.2,72,0.00,,,0.00,7.45,VWS V14.01,2013-11-07 12:24:00,
2013-11-07 07:26:00,33.0,25.9,30.16,WNW,282,2.7,2.7,75,0.00,,,0.00,12.03,VWS V14.01,2013-11-07 12:26:00,
2013-11-07 07:27:00,33.1,25.6,30.16,West,274,2.8,2.8,73,0.00,,,0.00,16.91,VWS V14.01,2013-11-07 12:27:00,
2013-11-07 07:31:00,32.9,24.3,30.16,West,268,2.5,2.7,70,0.00,,,0.00,21.49,VWS V14.01,2013-11-07 12:31:00,
2013-11-07 07:32:00,33.0,24.2,30.21,West,272,2.8,2.8,70,0.00,,,0.00,21.79,VWS V14.01,2013-11-07 12:32:00,
2013-11-07 07:33:00,32.9,23.9,30.17,West,273,2.8,2.8,69,0.00,,,0.00,24.24,VWS V14.01,2013-11-07 12:33:00,
2013-11-07 07:36:00,32.5,23.5,30.17,West,275,1.6,2.7,69,0.00,,,0.00,27.96,VWS V14.01,2013-11-07 12:36:00,
2013-11-07 07:37:00,32.7,23.7,30.16,West,275,2.0,3.0,69,0.00,,,0.00,29.49,VWS V14.01,2013-11-07 12:37:00,
2013-11-07 07:38:00,33.0,24.0,30.16,West,275,2.3,2.3,69,0.00,,,0.00,31.32,VWS V14.01,2013-11-07 12:38:00,
2013-11-07 07:39:00,32.8,23.6,30.17,West,270,2.2,2.7,69,0.00,,,0.00,33.76,VWS V14.01,2013-11-07 12:39:00,
2013-11-07 07:41:00,32.5,23.5,30.17,West,270,1.5,1.5,69,0.00,,,0.00,37.97,VWS V14.01,2013-11-07 12:41:00,
2013-11-07 07:42:00,32.2,23.4,30.16,West,269,0.0,1.5,70,0.00,,,0.00,34.68,VWS V14.01,2013-11-07 12:42:00,
2013-11-07 07:44:00,32.5,24.1,30.17,West,268,0.0,0.0,71,0.00,,,0.00,53.24,VWS V14.01,2013-11-07 12:44:00,
2013-11-07 07:45:00,33.2,24.4,30.17,West,266,2.5,2.5,70,0.00,,,0.00,54.27,VWS V14.01,2013-11-07 12:45:00,
2013-11-07 07:46:00,33.2,24.4,30.17,West,266,2.5,2.5,70,0.00,,,0.00,54.27,VWS V14.01,2013-11-07 12:46:00,
2013-11-07 07:49:00,33.3,24.5,30.17,WSW,255,2.5,2.5,70,0.00,,,0.00,60.50,VWS V14.01,2013-11-07 12:49:00,
2013-11-07 07:50:00,33.5,24.9,30.17,WSW,252,0.0,0.0,70,0.00,,,0.00,63.31,VWS V14.01,2013-11-07 12:50:00,
2013-11-07 07:51:00,33.6,24.9,30.16,WSW,257,0.0,0.0,70,0.00,,,0.00,68.44,VWS V14.01,2013-11-07 12:51:00,
2013-11-07 07:52:00,33.8,24.9,30.16,WSW,255,0.0,0.0,69,0.00,,,0.00,75.27,VWS V14.01,2013-11-07 12:52:00,
2013-11-07 07:53:00,33.9,24.9,30.17,WSW,255,0.0,0.0,69,0.00,,,0.00,75.52,VWS V14.01,2013-11-07 12:53:00,
2013-11-07 07:56:00,34.0,23.4,30.16,West,265,3.0,3.2,65,0.00,,,0.00,38.89,VWS V14.01,2013-11-07 12:56:00,
2013-11-07 07:57:00,34.0,23.9,30.16,West,266,3.0,3.0,66,0.00,,,0.00,35.47,VWS V14.01,2013-11-07 12:57:00,
2013-11-07 07:58:00,34.0,23.9,30.16,West,266,3.0,3.0,66,0.00,,,0.00,35.47,VWS V14.01,2013-11-07 12:58:00,
2013-11-07 07:59:00,34.0,24.1,30.17,West,261,2.7,3.9,67,0.00,,,0.00,36.45,VWS V14.01,2013-11-07 12:59:00,
2013-11-07 08:01:00,34.1,24.5,30.17,WSW,257,3.9,3.9,68,0.00,,,0.00,58.67,VWS V14.01,2013-11-07 13:01:00,
2013-11-07 08:03:00,34.1,24.5,30.17,WSW,257,3.9,3.9,68,0.00,,,0.00,58.67,VWS V14.01,2013-11-07 13:03:00,
2013-11-07 08:04:00,34.5,23.4,30.17,WSW,257,3.4,3.4,64,0.00,,,0.00,82.54,VWS V14.01,2013-11-07 13:04:00,
2013-11-07 08:05:00,34.4,23.4,30.17,WSW,256,2.3,3.4,64,0.00,,,0.00,82.84,VWS V14.01,2013-11-07 13:05:00,
2013-11-07 08:06:00,34.4,23.2,30.17,West,262,2.2,3.4,63,0.00,,,0.00,85.04,VWS V14.01,2013-11-07 13:06:00,
2013-11-07 08:09:00,34.6,23.0,30.17,West,276,2.3,2.8,62,0.00,,,0.00,102.38,VWS V14.01,2013-11-07 13:09:00,
2013-11-07 08:10:00,34.8,23.6,30.18,West,277,0.0,1.1,63,0.00,,,0.00,112.15,VWS V14.01,2013-11-07 13:10:00,
2013-11-07 08:11:00,34.8,23.3,30.16,West,268,2.2,3.7,62,0.00,,,0.00,130.10,VWS V14.01,2013-11-07 13:11:00,
2013-11-07 08:12:00,35.2,23.6,30.17,West,271,2.5,2.5,62,0.00,,,0.00,136.57,VWS V14.01,2013-11-07 13:12:00,
2013-11-07 08:15:00,35.8,23.7,30.17,WSW,253,3.0,3.0,61,0.00,,,0.00,138.03,VWS V14.01,2013-11-07 13:15:00,
2013-11-07 08:16:00,35.1,22.2,30.17,West,273,4.0,5.6,59,0.00,,,0.00,126.80,VWS V14.01,2013-11-07 13:16:00,
2013-11-07 08:17:00,35.6,23.0,30.17,West,259,4.0,4.9,60,0.00,,,0.00,121.61,VWS V14.01,2013-11-07 13:17:00,
2013-11-07 08:18:00,34.9,22.1,30.17,West,267,4.5,4.5,59,0.00,,,0.00,83.58,VWS V14.01,2013-11-07 13:18:00,
2013-11-07 08:20:00,35.1,22.6,30.17,West,266,3.7,4.7,60,0.00,,,0.00,104.82,VWS V14.01,2013-11-07 13:20:00,
2013-11-07 08:21:00,35.5,22.7,30.17,West,279,5.9,7.1,59,0.00,,,0.00,138.03,VWS V14.01,2013-11-07 13:21:00,
2013-11-07 08:23:00,35.3,21.7,30.16,West,260,8.3,8.3,57,0.00,,,0.00,127.53,VWS V14.01,2013-11-07 13:23:00,
2013-11-07 08:25:00,35.0,22.8,30.17,West,274,4.4,4.5,60,0.00,,,0.00,81.87,VWS V14.01,2013-11-07 13:25:00,
2013-11-07 08:26:00,35.2,23.2,30.16,West,264,5.9,5.9,61,0.00,,,0.00,73.99,VWS V14.01,2013-11-07 13:26:00,
2013-11-07 08:29:00,35.1,23.1,30.17,West,269,6.8,7.3,61,0.00,,,0.00,95.06,VWS V14.01,2013-11-07 13:29:00,
2013-11-07 08:30:00,35.7,24.5,30.17,West,261,7.5,7.5,63,0.00,,,0.00,182.72,VWS V14.01,2013-11-07 13:30:00,
2013-11-07 08:31:00,36.2,24.1,30.17,WSW,248,6.3,6.3,61,0.00,,,0.00,175.64,VWS V14.01,2013-11-07 13:31:00,
2013-11-07 08:32:00,36.2,24.1,30.17,WSW,248,6.3,6.3,61,0.00,,,0.00,175.64,VWS V14.01,2013-11-07 13:32:00,
2013-11-07 08:35:00,36.3,23.5,30.17,NW,305,7.3,7.3,59,0.00,,,0.00,197.31,VWS V14.01,2013-11-07 13:35:00,
2013-11-07 08:36:00,35.6,22.4,30.17,West,273,7.8,7.8,58,0.00,,,0.00,122.22,VWS V14.01,2013-11-07 13:36:00,
2013-11-07 08:37:00,35.9,22.9,30.17,WSW,252,9.0,9.0,59,0.00,,,0.00,203.17,VWS V14.01,2013-11-07 13:37:00,
2013-11-07 08:38:00,35.5,22.5,30.16,West,261,9.0,9.0,59,0.00,,,0.00,79.18,VWS V14.01,2013-11-07 13:38:00,
2013-11-07 08:40:00,36.5,24.7,30.17,WSW,255,4.9,6.9,62,0.00,,,0.00,154.64,VWS V14.01,2013-11-07 13:40:00,
2013-11-07 08:41:00,35.3,22.8,30.17,West,269,7.8,9.9,60,0.00,,,0.00,70.63,VWS V14.01,2013-11-07 13:41:00,
2013-11-07 08:42:00,35.3,22.8,30.17,West,269,7.8,9.9,60,0.00,,,0.00,70.63,VWS V14.01,2013-11-07 13:42:00,
2013-11-07 08:43:00,35.4,24.0,30.18,West,260,7.8,8.5,63,0.00,,,0.00,67.22,VWS V14.01,2013-11-07 13:43:00,
2013-11-07 08:46:00,36.0,24.0,30.17,West,270,6.1,6.8,61,0.00,,,0.00,166.18,VWS V14.01,2013-11-07 13:46:00,
2013-11-07 08:47:00,35.7,23.8,30.21,West,264,5.4,8.3,61,0.00,,,0.00,51.59,VWS V14.01,2013-11-07 13:47:00,
2013-11-07 08:49:00,36.1,24.9,30.18,WSW,254,7.5,9.5,63,0.00,,,0.00,182.97,VWS V14.01,2013-11-07 13:49:00,
2013-11-07 08:51:00,36.7,24.9,30.17,West,271,6.1,8.7,62,0.00,,,0.00,187.12,VWS V14.01,2013-11-07 13:51:00,
2013-11-07 08:52:00,36.8,24.4,30.17,West,264,6.3,6.3,60,0.00,,,0.00,188.34,VWS V14.01,2013-11-07 13:52:00,
2013-11-07 08:53:00,36.2,22.8,30.17,West,268,8.0,8.0,58,0.00,,,0.00,194.87,VWS V14.01,2013-11-07 13:53:00,
2013-11-07 08:55:00,36.1,22.9,30.18,WNW,282,7.8,7.8,58,0.00,,,0.00,198.23,VWS V14.01,2013-11-07 13:55:00,
2013-11-07 08:56:00,36.3,22.8,30.17,West,273,7.6,7.6,58,0.00,,,0.00,205.92,VWS V14.01,2013-11-07 13:56:00,
2013-11-07 08:57:00,36.8,23.6,30.17,WSW,258,7.3,7.8,59,0.00,,,0.00,204.95,VWS V14.01,2013-11-07 13:57:00,
2013-11-07 08:59:00,37.5,24.5,30.17,West,271,5.6,9.5,59,0.00,,,0.00,202.50,VWS V14.01,2013-11-07 13:59:00,
2013-11-07 09:00:00,36.5,22.5,30.17,WSW,255,10.7,10.7,56,0.00,,,0.00,202.50,VWS V14.01,2013-11-07 14:00:00,
2013-11-07 09:01:00,37.4,23.6,30.16,NW,316,6.9,10.7,57,0.00,,,0.00,205.56,VWS V14.01,2013-11-07 14:01:00,
2013-11-07 09:03:00,37.5,23.5,30.17,West,273,8.0,10.0,57,0.00,,,0.00,208.06,VWS V14.01,2013-11-07 14:03:00,
2013-11-07 09:04:00,37.3,23.0,30.17,WNW,295,8.8,8.8,56,0.00,,,0.00,210.44,VWS V14.01,2013-11-07 14:04:00,
2013-11-07 09:05:00,36.7,21.6,30.17,West,265,8.7,9.5,54,0.00,,,0.00,212.70,VWS V14.01,2013-11-07 14:05:00,
2013-11-07 09:08:00,37.4,22.4,30.17,West,279,9.2,9.2,54,0.00,,,0.00,218.32,VWS V14.01,2013-11-07 14:08:00,
2013-11-07 09:09:00,37.3,23.0,30.17,WSW,251,8.8,9.2,56,0.00,,,0.00,222.65,VWS V14.01,2013-11-07 14:09:00,
2013-11-07 09:11:00,37.7,23.1,30.17,WSW,250,6.9,8.8,55,0.00,,,0.00,224.48,VWS V14.01,2013-11-07 14:11:00,
2013-11-07 09:12:00,37.7,23.1,30.17,WSW,250,6.9,8.8,55,0.00,,,0.00,224.48,VWS V14.01,2013-11-07 14:12:00,
2013-11-07 09:13:00,37.6,22.8,30.17,West,280,6.1,8.3,55,0.00,,,0.00,231.32,VWS V14.01,2013-11-07 14:13:00,
2013-11-07 09:15:00,37.5,22.4,30.17,West,281,10.4,11.7,54,0.00,,,0.00,234.86,VWS V14.01,2013-11-07 14:15:00,
2013-11-07 09:16:00,37.8,22.5,30.17,NW,306,8.3,11.7,54,0.00,,,0.00,236.69,VWS V14.01,2013-11-07 14:16:00,
2013-11-07 09:17:00,37.3,22.5,30.17,West,262,10.9,10.9,55,0.00,,,0.00,237.85,VWS V14.01,2013-11-07 14:17:00,
2013-11-07 09:19:00,37.5,22.4,30.17,West,272,8.8,9.5,54,0.00,,,0.00,242.31,VWS V14.01,2013-11-07 14:19:00,
2013-11-07 09:20:00,37.9,22.6,30.16,WNW,293,9.5,9.5,54,0.00,,,0.00,246.21,VWS V14.01,2013-11-07 14:20:00,
2013-11-07 09:22:00,37.7,22.6,30.17,West,274,10.4,10.4,54,0.00,,,0.00,248.90,VWS V14.01,2013-11-07 14:22:00,
2013-11-07 09:23:00,38.5,23.2,30.17,West,276,8.5,10.4,54,0.00,,,0.00,250.79,VWS V14.01,2013-11-07 14:23:00,
2013-11-07 09:25:00,37.7,22.3,30.21,WNW,301,9.3,9.3,53,0.00,,,0.00,256.23,VWS V14.01,2013-11-07 14:25:00,
2013-11-07 09:27:00,37.7,21.0,30.17,NW,305,12.1,12.1,50,0.00,,,0.00,261.11,VWS V14.01,2013-11-07 14:27:00,
2013-11-07 09:28:00,37.9,21.9,30.17,WNW,288,12.8,12.8,52,0.00,,,0.00,261.11,VWS V14.01,2013-11-07 14:28:00,
2013-11-07 09:29:00,38.6,23.0,30.17,West,271,9.3,12.1,53,0.00,,,0.00,262.82,VWS V14.01,2013-11-07 14:29:00,
2013-11-07 09:30:00,38.7,22.8,30.17,WNW,300,6.3,11.6,52,0.00,,,0.00,265.93,VWS V14.01,2013-11-07 14:30:00,
2013-11-07 09:31:00,38.9,22.9,30.17,NW,322,11.1,11.6,52,0.00,,,0.00,268.13,VWS V14.01,2013-11-07 14:31:00,
2013-11-07 09:33:00,38.6,22.5,30.16,NW,322,9.9,9.9,52,0.00,,,0.00,273.32,VWS V14.01,2013-11-07 14:33:00,
2013-11-07 09:34:00,38.7,23.1,30.17,NW,311,9.7,9.9,53,0.00,,,0.00,277.05,VWS V14.01,2013-11-07 14:34:00,
2013-11-07 09:36:00,39.2,23.2,30.17,WNW,291,9.2,10.0,52,0.00,,,0.00,279.67,VWS V14.01,2013-11-07 14:36:00,
2013-11-07 09:37:00,39.5,23.4,30.17,WNW,293,7.8,9.2,52,0.00,,,0.00,285.53,VWS V14.01,2013-11-07 14:37:00,
2013-11-07 09:40:00,38.8,21.1,30.17,NNW,327,12.1,12.1,49,0.00,,,0.00,69.90,VWS V14.01,2013-11-07 14:40:00,
2013-11-07 09:41:00,39.3,22.1,30.16,WNW,298,9.0,12.6,50,0.00,,,0.00,291.88,VWS V14.01,2013-11-07 14:41:00,
2013-11-07 09:42:00,39.5,22.7,30.15,NNW,332,9.0,9.0,51,0.00,,,0.00,302.63,VWS V14.01,2013-11-07 14:42:00,
2013-11-07 09:43:00,39.2,21.5,30.16,West,276,9.7,11.7,49,0.00,,,0.00,302.50,VWS V14.01,2013-11-07 14:43:00,
2013-11-07 09:45:00,38.7,21.1,30.16,NW,306,13.1,15.2,49,0.00,,,0.00,304.03,VWS V14.01,2013-11-07 14:45:00,
2013-11-07 09:47:00,39.3,22.2,30.16,WNW,297,11.4,11.4,50,0.00,,,0.00,329.49,VWS V14.01,2013-11-07 14:47:00,
2013-11-07 09:49:00,40.0,22.6,30.17,NNW,340,12.3,13.5,49,0.00,,,0.00,339.80,VWS V14.01,2013-11-07 14:49:00,
2013-11-07 09:50:00,38.8,20.4,30.16,NW,311,18.1,18.1,47,0.00,,,0.00,353.91,VWS V14.01,2013-11-07 14:50:00,
2013-11-07 09:51:00,38.8,20.3,30.18,WNW,303,20.3,20.3,47,0.00,,,0.00,356.35,VWS V14.01,2013-11-07 14:51:00,
2013-11-07 09:53:00,38.5,20.1,30.16,WNW,285,18.2,18.2,47,0.00,,,0.00,297.44,VWS V14.01,2013-11-07 14:53:00,
2013-11-07 09:56:00,38.7,20.0,30.16,NNW,334,12.9,13.1,47,0.00,,,0.00,71.55,VWS V14.01,2013-11-07 14:56:00,
2013-11-07 09:57:00,38.7,18.9,30.16,NNW,334,11.1,12.9,45,0.00,,,0.00,71.55,VWS V14.01,2013-11-07 14:57:00,
2013-11-07 09:58:00,39.7,21.5,30.16,NNW,333,12.4,12.4,48,0.00,,,0.00,397.86,VWS V14.01,2013-11-07 14:58:00,
2013-11-07 09:59:00,40.7,22.5,30.16,NNW,332,17.6,17.6,48,0.00,,,0.00,284.07,VWS V14.01,2013-11-07 14:59:00,
2013-11-07 10:01:00,39.8,22.0,30.16,WNW,298,15.8,17.9,49,0.00,,,0.00,376.86,VWS V14.01,2013-11-07 15:01:00,
2013-11-07 10:02:00,39.5,22.1,30.16,NW,314,9.2,15.8,49,0.00,,,0.00,210.56,VWS V14.01,2013-11-07 15:02:00,
2013-11-07 10:04:00,39.8,21.1,30.15,NNW,341,15.8,15.8,47,0.00,,,0.00,388.10,VWS V14.01,2013-11-07 15:04:00,
2013-11-07 10:05:00,39.1,19.6,30.15,NW,308,12.3,15.8,45,0.00,,,0.00,107.88,VWS V14.01,2013-11-07 15:05:00,
2013-11-07 10:06:00,39.3,21.5,30.16,NNW,343,9.0,15.8,48,0.00,,,0.00,176.13,VWS V14.01,2013-11-07 15:06:00,
2013-11-07 10:07:00,39.9,22.4,30.16,North,351,9.5,15.8,49,0.00,,,0.00,151.22,VWS V14.01,2013-11-07 15:07:00,
2013-11-07 10:08:00,39.4,21.2,30.15,NW,310,13.6,15.8,48,0.00,,,0.00,398.72,VWS V14.01,2013-11-07 15:08:00,
2013-11-07 10:10:00,40.6,21.4,30.16,NW,324,13.6,15.8,46,0.00,,,0.00,414.96,VWS V14.01,2013-11-07 15:10:00,
2013-11-07 10:11:00,40.4,21.1,30.16,NNW,331,10.9,15.8,46,0.00,,,0.00,261.54,VWS V14.01,2013-11-07 15:11:00,
2013-11-07 10:13:00,39.8,20.2,30.16,NW,314,14.3,15.8,45,0.00,,,0.00,407.33,VWS V14.01,2013-11-07 15:13:00,
2013-11-07 10:15:00,39.9,20.3,30.17,NW,324,12.8,15.8,45,0.00,,,0.00,244.02,VWS V14.01,2013-11-07 15:15:00,
2013-11-07 10:16:00,39.8,21.0,30.16,NW,319,8.8,15.8,46,0.00,,,0.00,104.82,VWS V14.01,2013-11-07 15:16:00,
2013-11-07 10:17:00,39.5,20.6,30.16,NW,311,12.1,15.8,46,0.00,,,0.00,108.06,VWS V14.01,2013-11-07 15:17:00,
2013-11-07 10:19:00,40.8,21.6,30.16,NW,316,11.9,16.9,46,0.00,,,0.00,402.75,VWS V14.01,2013-11-07 15:19:00,
2013-11-07 10:20:00,40.3,20.9,30.16,NW,316,14.3,16.9,46,0.00,,,0.00,370.70,VWS V14.01,2013-11-07 15:20:00,
2013-11-07 10:21:00,41.2,22.3,30.16,NNW,336,11.7,16.9,47,0.00,,,0.00,410.07,VWS V14.01,2013-11-07 15:21:00,
2013-11-07 10:23:00,41.3,18.4,30.16,WNW,301,10.5,16.9,39,0.00,,,0.00,118.25,VWS V14.01,2013-11-07 15:23:00,
2013-11-07 10:24:00,41.0,21.9,30.17,WSW,256,13.1,16.9,46,0.00,,,0.00,417.40,VWS V14.01,2013-11-07 15:24:00,
2013-11-07 10:26:00,39.4,15.6,30.16,NW,310,13.6,16.9,37,0.00,,,0.00,131.69,VWS V14.01,2013-11-07 15:26:00,
2013-11-07 10:27:00,40.7,21.2,30.16,WNW,288,10.5,16.9,45,0.00,,,0.00,141.70,VWS V14.01,2013-11-07 15:27:00,
2013-11-07 10:28:00,41.0,21.6,30.17,NNW,334,11.4,16.9,46,0.00,,,0.00,442.12,VWS V14.01,2013-11-07 15:28:00,
2013-11-07 10:29:00,41.0,21.6,30.16,North,351,13.8,16.9,45,0.00,,,0.00,446.70,VWS V14.01,2013-11-07 15:29:00,
2013-11-07 10:32:00,39.0,18.7,30.16,NW,310,14.8,16.9,44,0.00,,,0.00,99.88,VWS V14.01,2013-11-07 15:32:00,
2013-11-07 10:33:00,39.0,18.7,30.16,NW,310,14.8,16.9,44,0.00,,,0.00,99.88,VWS V14.01,2013-11-07 15:33:00,
2013-11-07 10:34:00,39.7,20.2,30.17,NW,309,10.9,16.9,45,0.00,,,0.00,437.79,VWS V14.01,2013-11-07 15:34:00,
2013-11-07 10:38:00,42.1,22.3,30.17,NW,318,10.5,16.9,45,0.00,,,0.00,526.98,VWS V14.01,2013-11-07 15:38:00,
2013-11-07 10:39:00,41.3,20.6,30.17,NW,316,15.5,16.9,43,0.00,,,0.00,532.66,VWS V14.01,2013-11-07 15:39:00,
2013-11-07 10:40:00,42.0,21.7,30.17,NW,320,13.5,16.9,44,0.00,,,0.00,505.31,VWS V14.01,2013-11-07 15:40:00,
2013-11-07 10:42:00,40.2,20.8,30.17,WNW,297,11.2,19.3,45,0.00,,,0.00,406.17,VWS V14.01,2013-11-07 15:42:00,
2013-11-07 10:43:00,40.2,20.8,30.17,WNW,297,11.2,19.3,45,0.00,,,0.00,406.17,VWS V14.01,2013-11-07 15:43:00,
2013-11-07 10:44:00,41.0,22.2,30.16,NW,304,10.9,19.3,47,0.00,,,0.00,446.46,VWS V14.01,2013-11-07 15:44:00,
2013-11-07 10:45:00,40.5,19.9,30.17,WNW,289,16.0,19.3,43,0.00,,,0.00,463.55,VWS V14.01,2013-11-07 15:45:00,
2013-11-07 10:46:00,40.9,19.3,30.17,NNW,344,17.2,19.3,41,0.00,,,0.00,461.60,VWS V14.01,2013-11-07 15:46:00,
2013-11-07 10:47:00,40.9,19.7,30.16,WNW,292,16.0,19.3,42,0.00,,,0.00,294.38,VWS V14.01,2013-11-07 15:47:00,
2013-11-07 10:49:00,39.2,18.5,30.17,NW,324,17.2,19.3,43,0.00,,,0.00,129.24,VWS V14.01,2013-11-07 15:49:00,
2013-11-07 10:51:00,41.0,20.7,30.17,NW,318,9.3,19.3,44,0.00,,,0.00,359.16,VWS V14.01,2013-11-07 15:51:00,
2013-11-07 10:52:00,39.8,18.0,30.17,NNW,336,12.4,19.3,41,0.00,,,0.00,137.61,VWS V14.01,2013-11-07 15:52:00,
2013-11-07 10:54:00,40.3,20.6,30.17,NW,322,8.1,19.3,45,0.00,,,0.00,160.38,VWS V14.01,2013-11-07 15:54:00,
2013-11-07 10:57:00,40.6,19.7,30.17,NNW,339,12.3,19.3,43,0.00,,,0.00,148.78,VWS V14.01,2013-11-07 15:57:00,
2013-11-07 10:58:00,41.0,20.8,30.17,North,350,14.1,19.3,44,0.00,,,0.00,151.59,VWS V14.01,2013-11-07 15:58:00,
2013-11-07 10:59:00,41.2,20.4,30.17,NW,318,15.8,19.3,43,0.00,,,0.00,152.63,VWS V14.01,2013-11-07 15:59:00,
2013-11-07 11:00:00,40.4,19.5,30.17,NW,305,15.2,19.3,43,0.00,,,0.00,107.26,VWS V14.01,2013-11-07 16:00:00,
2013-11-07 11:01:00,40.3,19.2,30.17,WNW,290,10.9,19.3,42,0.00,,,0.00,124.36,VWS V14.01,2013-11-07 16:01:00,
2013-11-07 11:04:00,41.4,20.8,30.17,NW,313,17.0,17.0,43,0.00,,,0.00,168.74,VWS V14.01,2013-11-07 16:04:00,
2013-11-07 11:05:00,41.0,20.7,30.18,NW,306,14.5,14.5,44,0.00,,,0.00,129.24,VWS V14.01,2013-11-07 16:05:00,
2013-11-07 11:07:00,39.9,20.1,30.17,NNW,329,15.2,15.7,45,0.00,,,0.00,166.85,VWS V14.01,2013-11-07 16:07:00,
2013-11-07 11:08:00,40.5,19.9,30.17,NW,317,16.7,16.7,43,0.00,,,0.00,212.27,VWS V14.01,2013-11-07 16:08:00,
2013-11-07 11:10:00,42.0,21.9,30.16,NW,326,14.0,14.0,44,0.00,,,0.00,522.41,VWS V14.01,2013-11-07 16:10:00,
2013-11-07 11:11:00,40.4,19.0,30.17,WNW,303,16.0,16.0,42,0.00,,,0.00,190.54,VWS V14.01,2013-11-07 16:11:00,
2013-11-07 11:12:00,41.0,19.8,30.17,NNW,327,16.2,16.2,42,0.00,,,0.00,245.18,VWS V14.01,2013-11-07 16:12:00,
2013-11-07 11:13:00,41.0,20.1,30.17,NW,317,15.3,18.2,43,0.00,,,0.00,554.15,VWS V14.01,2013-11-07 16:13:00,
2013-11-07 11:15:00,41.4,19.7,30.15,NNW,328,17.4,17.4,41,0.00,,,0.00,591.03,VWS V14.01,2013-11-07 16:15:00,
2013-11-07 11:16:00,42.2,21.5,30.17,NW,306,10.4,10.4,43,0.00,,,0.00,585.90,VWS V14.01,2013-11-07 16:16:00,
2013-11-07 11:17:00,43.1,22.6,30.17,WNW,292,12.4,14.8,44,0.00,,,0.00,349.02,VWS V14.01,2013-11-07 16:17:00,
2013-11-07 11:19:00,41.6,20.9,30.18,NW,321,13.8,16.0,43,0.00,,,0.00,225.64,VWS V14.01,2013-11-07 16:19:00,
2013-11-07 11:20:00,41.2,20.1,30.17,WNW,289,13.6,13.6,42,0.00,,,0.00,219.60,VWS V14.01,2013-11-07 16:20:00,
2013-11-07 11:21:00,41.2,20.4,30.17,WNW,295,11.6,16.2,43,0.00,,,0.00,192.67,VWS V14.01,2013-11-07 16:21:00,
2013-11-07 11:22:00,41.2,20.4,30.17,WNW,295,11.6,16.2,43,0.00,,,0.00,192.67,VWS V14.01,2013-11-07 16:22:00,
2013-11-07 11:23:00,40.9,19.9,30.17,NW,317,16.7,16.7,43,0.00,,,0.00,153.30,VWS V14.01,2013-11-07 16:23:00,
2013-11-07 11:25:00,40.3,18.1,30.16,NW,314,21.3,21.3,40,0.00,,,0.00,218.80,VWS V14.01,2013-11-07 16:25:00,
2013-11-07 11:26:00,41.4,19.6,30.17,NW,310,16.7,18.8,41,0.00,,,0.00,588.95,VWS V14.01,2013-11-07 16:26:00,
2013-11-07 11:28:00,42.9,21.9,30.18,WNW,296,13.5,16.5,43,0.00,,,0.00,527.05,VWS V14.01,2013-11-07 16:28:00,
2013-11-07 11:29:00,41.8,19.1,30.17,West,269,15.7,15.7,40,0.00,,,0.00,534.37,VWS V14.01,2013-11-07 16:29:00,
2013-11-07 11:32:00,42.5,20.5,30.17,WNW,291,17.7,17.7,41,0.00,,,0.00,539.19,VWS V14.01,2013-11-07 16:32:00,
2013-11-07 11:33:00,41.7,18.6,30.17,NW,308,16.0,16.0,39,0.00,,,0.00,587.06,VWS V14.01,2013-11-07 16:33:00,
2013-11-07 11:34:00,41.9,19.1,30.17,NNW,342,14.8,14.8,40,0.00,,,0.00,466.24,VWS V14.01,2013-11-07 16:34:00,
2013-11-07 11:37:00,41.6,18.7,30.16,NW,315,15.8,16.4,39,0.00,,,0.00,478.14,VWS V14.01,2013-11-07 16:37:00,
2013-11-07 11:38:00,42.7,20.6,30.16,NW,325,16.7,16.7,41,0.00,,,0.00,536.75,VWS V14.01,2013-11-07 16:38:00,
2013-11-07 11:39:00,42.2,20.2,30.17,NW,318,15.7,16.7,41,0.00,,,0.00,547.44,VWS V14.01,2013-11-07 16:39:00,
2013-11-07 11:40:00,41.9,18.6,30.16,NW,318,18.6,18.6,39,0.00,,,0.00,554.15,VWS V14.01,2013-11-07 16:40:00,
2013-11-07 11:43:00,42.6,21.9,30.16,NW,320,8.5,14.3,44,0.00,,,0.00,221.73,VWS V14.01,2013-11-07 16:43:00,
2013-11-07 11:44:00,40.5,17.7,30.18,WNW,302,16.7,16.7,39,0.00,,,0.00,229.12,VWS V14.01,2013-11-07 16:44:00,
2013-11-07 11:45:00,42.3,20.8,30.17,WNW,295,12.8,16.7,42,0.00,,,0.00,604.95,VWS V14.01,2013-11-07 16:45:00,
2013-11-07 11:46:00,42.8,21.8,30.17,NW,315,12.6,12.8,43,0.00,,,0.00,254.70,VWS V14.01,2013-11-07 16:46:00,
2013-11-07 11:49:00,40.5,18.7,30.16,WNW,287,17.4,18.1,41,0.00,,,0.00,195.91,VWS V14.01,2013-11-07 16:49:00,
2013-11-07 11:50:00,42.1,21.8,30.17,WNW,290,9.7,17.4,44,0.00,,,0.00,624.24,VWS V14.01,2013-11-07 16:50:00,
2013-11-07 11:51:00,42.8,21.3,30.17,NW,322,12.9,12.9,42,0.00,,,0.00,334.62,VWS V14.01,2013-11-07 16:51:00,
2013-11-07 11:52:00,43.3,21.7,30.17,NNW,333,12.3,12.3,42,0.00,,,0.00,620.09,VWS V14.01,2013-11-07 16:52:00,
2013-11-07 11:54:00,41.6,18.9,30.17,NW,314,12.9,15.0,40,0.00,,,0.00,479.61,VWS V14.01,2013-11-07 16:54:00,
2013-11-07 11:56:00,43.3,21.3,30.15,WNW,294,14.3,14.3,41,0.00,,,0.00,609.71,VWS V14.01,2013-11-07 16:56:00,
2013-11-07 11:57:00,43.4,21.4,30.16,WNW,288,12.3,15.0,41,0.00,,,0.00,612.76,VWS V14.01,2013-11-07 16:57:00,
2013-11-07 11:59:00,42.3,19.1,30.20,WNW,289,16.5,16.5,39,0.00,,,0.00,411.78,VWS V14.01,2013-11-07 16:59:00,
2013-11-07 12:00:00,42.2,19.1,30.17,West,277,14.8,16.5,39,0.00,,,0.00,134.92,VWS V14.01,2013-11-07 17:00:00,
2013-11-07 12:01:00,42.2,20.2,30.19,WNW,296,10.4,15.5,41,0.00,,,0.00,501.89,VWS V14.01,2013-11-07 17:01:00,
2013-11-07 12:03:00,42.0,19.1,30.15,WNW,294,15.5,15.5,39,0.00,,,0.00,244.63,VWS V14.01,2013-11-07 17:03:00,
2013-11-07 12:05:00,42.6,20.0,30.16,WNW,287,12.1,12.1,40,0.00,,,0.00,490.17,VWS V14.01,2013-11-07 17:05:00,
2013-11-07 12:06:00,42.0,18.6,30.16,NW,310,13.6,15.0,39,0.00,,,0.00,522.59,VWS V14.01,2013-11-07 17:06:00,
2013-11-07 12:07:00,42.0,19.4,30.16,WNW,300,13.5,13.5,40,0.00,,,0.00,483.33,VWS V14.01,2013-11-07 17:07:00,
2013-11-07 12:09:00,42.2,19.4,30.15,NW,317,13.6,19.3,40,0.00,,,0.00,185.10,VWS V14.01,2013-11-07 17:09:00,
2013-11-07 12:11:00,42.1,19.0,30.16,NW,316,13.1,13.5,39,0.00,,,0.00,629.85,VWS V14.01,2013-11-07 17:11:00,
2013-11-07 12:12:00,42.9,20.5,30.16,West,274,10.0,13.1,40,0.00,,,0.00,234.86,VWS V14.01,2013-11-07 17:12:00,
2013-11-07 12:13:00,41.9,20.0,30.15,West,281,13.3,17.4,41,0.00,,,0.00,169.17,VWS V14.01,2013-11-07 17:13:00,
2013-11-07 12:14:00,42.0,19.1,30.14,WNW,303,10.7,13.3,39,0.00,,,0.00,114.53,VWS V14.01,2013-11-07 17:14:00,
2013-11-07 12:17:00,41.2,18.9,30.15,West,275,12.8,14.5,40,0.00,,,0.00,117.03,VWS V14.01,2013-11-07 17:17:00,
2013-11-07 12:18:00,41.1,19.0,30.15,NW,307,13.5,19.8,41,0.00,,,0.00,151.47,VWS V14.01,2013-11-07 17:18:00,
2013-11-07 12:19:00,41.6,19.5,30.15,West,279,14.6,16.2,41,0.00,,,0.00,190.90,VWS V14.01,2013-11-07 17:19:00,
2013-11-07 12:20:00,41.6,19.1,30.15,NW,320,17.0,17.0,40,0.00,,,0.00,238.16,VWS V14.01,2013-11-07 17:20:00,
2013-11-07 12:22:00,42.9,20.5,30.16,WNW,299,13.1,13.6,40,0.00,,,0.00,573.32,VWS V14.01,2013-11-07 17:22:00,
2013-11-07 12:23:00,41.8,18.5,30.15,NW,304,14.8,14.8,39,0.00,,,0.00,215.63,VWS V14.01,2013-11-07 17:23:00,
2013-11-07 12:24:00,42.1,19.0,30.18,NW,323,13.8,13.8,39,0.00,,,0.00,195.18,VWS V14.01,2013-11-07 17:24:00,
2013-11-07 12:27:00,43.3,21.4,30.18,NW,325,10.0,10.0,41,0.00,,,0.00,331.38,VWS V14.01,2013-11-07 17:27:00,
2013-11-07 12:29:00,43.5,19.7,30.15,WNW,295,11.6,12.8,38,0.00,,,0.00,217.77,VWS V14.01,2013-11-07 17:29:00,
2013-11-07 12:30:00,43.1,19.5,30.15,WNW,301,13.3,13.3,38,0.00,,,0.00,190.29,VWS V14.01,2013-11-07 17:30:00,
2013-11-07 12:31:00,42.8,18.9,30.15,WNW,295,12.1,13.3,38,0.00,,,0.00,182.36,VWS V14.01,2013-11-07 17:31:00,
2013-11-07 12:32:00,42.3,18.8,30.14,WNW,300,12.8,13.1,39,0.00,,,0.00,220.33,VWS V14.01,2013-11-07 17:32:00,
2013-11-07 12:34:00,43.5,20.0,30.15,West,273,12.3,12.3,39,0.00,,,0.00,659.40,VWS V14.01,2013-11-07 17:34:00,
2013-11-07 12:35:00,43.6,20.0,30.15,NW,316,15.0,15.0,39,0.00,,,0.00,319.48,VWS V14.01,2013-11-07 17:35:00,
2013-11-07 12:36:00,42.1,17.7,30.14,West,280,15.8,20.0,37,0.00,,,0.00,222.04,VWS V14.01,2013-11-07 17:36:00,
2013-11-07 12:37:00,41.9,17.1,30.15,WNW,287,14.3,15.8,36,0.00,,,0.00,229.37,VWS V14.01,2013-11-07 17:37:00,
2013-11-07 12:38:00,42.6,18.1,30.14,NW,308,13.6,16.5,37,0.00,,,0.00,164.90,VWS V14.01,2013-11-07 17:38:00,
2013-11-07 12:40:00,42.2,17.9,30.15,WNW,286,14.6,14.6,37,0.00,,,0.00,153.66,VWS V14.01,2013-11-07 17:40:00,
2013-11-07 12:41:00,42.3,17.7,30.15,NW,307,15.3,15.3,37,0.00,,,0.00,163.31,VWS V14.01,2013-11-07 17:41:00,
2013-11-07 12:43:00,42.2,16.7,30.14,WNW,298,19.3,19.3,35,0.00,,,0.00,170.45,VWS V14.01,2013-11-07 17:43:00,
2013-11-07 12:44:00,42.9,17.8,30.14,WNW,290,15.2,17.6,36,0.00,,,0.00,197.62,VWS V14.01,2013-11-07 17:44:00,
2013-11-07 12:45:00,43.2,18.6,30.14,NNW,348,14.8,15.2,37,0.00,,,0.00,200.37,VWS V14.01,2013-11-07 17:45:00,
2013-11-07 12:46:00,42.3,16.8,30.14,WNW,298,18.2,18.2,35,0.00,,,0.00,180.22,VWS V14.01,2013-11-07 17:46:00,
2013-11-07 12:49:00,43.8,18.2,30.14,NW,304,14.8,16.7,35,0.00,,,0.00,592.61,VWS V14.01,2013-11-07 17:49:00,
2013-11-07 12:51:00,42.9,17.4,30.14,WNW,299,16.2,16.2,35,0.00,,,0.00,227.17,VWS V14.01,2013-11-07 17:51:00,
2013-11-07 12:52:00,42.3,17.4,30.12,NW,309,15.7,15.7,36,0.00,,,0.00,182.91,VWS V14.01,2013-11-07 17:52:00,
2013-11-07 12:54:00,44.0,20.0,30.13,North,350,13.6,18.8,38,0.00,,,0.00,567.83,VWS V14.01,2013-11-07 17:54:00,
2013-11-07 12:55:00,44.6,21.2,30.12,WNW,301,13.1,18.8,39,0.00,,,0.00,563.92,VWS V14.01,2013-11-07 17:55:00,
2013-11-07 12:56:00,42.6,17.6,30.13,WNW,284,14.8,14.8,36,0.00,,,0.00,561.48,VWS V14.01,2013-11-07 17:56:00,
2013-11-07 12:57:00,43.0,18.0,30.14,WNW,293,12.9,14.8,36,0.00,,,0.00,571.31,VWS V14.01,2013-11-07 17:57:00,
2013-11-07 12:59:00,43.4,18.2,30.13,WNW,288,14.0,14.0,36,0.00,,,0.00,582.23,VWS V14.01,2013-11-07 17:59:00,
2013-11-07 13:00:00,42.9,18.1,30.13,WNW,293,14.1,14.3,37,0.00,,,0.00,154.15,VWS V14.01,2013-11-07 18:00:00,
2013-11-07 13:02:00,42.2,18.2,30.13,WNW,298,15.0,15.0,38,0.00,,,0.00,112.82,VWS V14.01,2013-11-07 18:02:00,
2013-11-07 13:03:00,42.2,18.2,30.13,WNW,297,13.6,15.0,38,0.00,,,0.00,109.40,VWS V14.01,2013-11-07 18:03:00,
2013-11-07 13:04:00,42.1,19.7,30.12,West,281,12.9,15.0,40,0.00,,,0.00,113.37,VWS V14.01,2013-11-07 18:04:00,
2013-11-07 13:06:00,42.1,18.5,30.13,NW,309,18.1,18.1,38,0.00,,,0.00,173.50,VWS V14.01,2013-11-07 18:06:00,
2013-11-07 13:08:00,42.7,19.5,30.13,NW,309,17.0,18.1,39,0.00,,,0.00,201.28,VWS V14.01,2013-11-07 18:08:00,
2013-11-07 13:09:00,42.7,19.5,30.13,NW,309,17.0,18.1,39,0.00,,,0.00,201.28,VWS V14.01,2013-11-07 18:09:00,
2013-11-07 13:11:00,43.2,19.9,30.12,West,272,16.0,18.1,39,0.00,,,0.00,575.95,VWS V14.01,2013-11-07 18:11:00,
2013-11-07 13:12:00,44.5,20.9,30.13,WNW,301,11.1,18.1,39,0.00,,,0.00,468.44,VWS V14.01,2013-11-07 18:12:00,
2013-11-07 13:14:00,43.4,18.4,30.12,WNW,291,18.2,18.2,36,0.00,,,0.00,390.54,VWS V14.01,2013-11-07 18:14:00,
2013-11-07 13:16:00,44.2,18.0,30.12,WNW,290,19.1,19.1,34,0.00,,,0.00,589.68,VWS V14.01,2013-11-07 18:16:00,
2013-11-07 13:17:00,44.8,16.6,30.12,WNW,294,13.8,19.1,32,0.00,,,0.00,213.49,VWS V14.01,2013-11-07 18:17:00,
2013-11-07 13:20:00,43.0,18.1,30.12,WNW,298,17.4,19.1,36,0.00,,,0.00,144.81,VWS V14.01,2013-11-07 18:20:00,
2013-11-07 13:21:00,42.6,17.3,30.12,West,274,21.0,21.0,36,0.00,,,0.00,139.01,VWS V14.01,2013-11-07 18:21:00,
2013-11-07 13:22:00,43.3,19.8,30.12,NW,304,14.1,21.0,39,0.00,,,0.00,509.46,VWS V14.01,2013-11-07 18:22:00,
2013-11-07 13:23:00,43.6,18.9,30.12,NW,320,18.1,21.0,37,0.00,,,0.00,495.54,VWS V14.01,2013-11-07 18:23:00,
2013-11-07 13:25:00,44.6,20.5,30.12,WNW,295,14.1,21.0,38,0.00,,,0.00,508.00,VWS V14.01,2013-11-07 18:25:00,
2013-11-07 13:27:00,44.0,18.9,30.12,WNW,302,12.4,21.0,36,0.00,,,0.00,347.44,VWS V14.01,2013-11-07 18:27:00,
2013-11-07 13:28:00,42.9,17.9,30.13,West,281,12.8,21.0,36,0.00,,,0.00,242.00,VWS V14.01,2013-11-07 18:28:00,
2013-11-07 13:30:00,42.7,19.1,30.12,NW,309,12.4,21.0,38,0.00,,,0.00,101.71,VWS V14.01,2013-11-07 18:30:00,
2013-11-07 13:32:00,42.6,19.5,30.11,WNW,288,16.0,21.0,39,0.00,,,0.00,122.22,VWS V14.01,2013-11-07 18:32:00,
2013-11-07 13:33:00,42.3,19.3,30.12,WNW,295,16.2,21.0,39,0.00,,,0.00,136.26,VWS V14.01,2013-11-07 18:33:00,
2013-11-07 13:35:00,42.7,19.7,30.12,WNW,297,16.9,21.0,39,0.00,,,0.00,185.10,VWS V14.01,2013-11-07 18:35:00,
2013-11-07 13:36:00,42.7,19.7,30.12,WNW,297,16.9,21.0,39,0.00,,,0.00,185.10,VWS V14.01,2013-11-07 18:36:00,
2013-11-07 13:38:00,42.7,19.5,30.11,WNW,286,15.8,21.0,39,0.00,,,0.00,359.10,VWS V14.01,2013-11-07 18:38:00,
2013-11-07 13:39:00,43.0,20.6,30.11,WNW,287,12.4,21.0,40,0.00,,,0.00,170.76,VWS V14.01,2013-11-07 18:39:00,
2013-11-07 13:40:00,43.5,19.6,30.12,WNW,287,14.0,21.0,38,0.00,,,0.00,503.11,VWS V14.01,2013-11-07 18:40:00,
2013-11-07 13:41:00,42.8,19.4,30.12,West,264,13.1,21.0,39,0.00,,,0.00,491.88,VWS V14.01,2013-11-07 18:41:00,
2013-11-07 13:44:00,42.8,19.1,30.11,NW,315,16.0,21.0,38,0.00,,,0.00,173.20,VWS V14.01,2013-11-07 18:44:00,
2013-11-07 13:45:00,42.8,19.1,30.11,NW,315,16.0,21.0,38,0.00,,,0.00,173.20,VWS V14.01,2013-11-07 18:45:00,
2013-11-07 13:49:00,42.9,20.7,30.13,West,267,10.2,21.0,41,0.00,,,0.00,119.17,VWS V14.01,2013-11-07 18:49:00,
2013-11-07 13:50:00,43.0,20.8,30.12,WNW,291,10.5,21.0,41,0.00,,,0.00,94.81,VWS V14.01,2013-11-07 18:50:00,
2013-11-07 13:52:00,42.4,20.5,30.12,WNW,302,11.1,21.0,41,0.00,,,0.00,100.79,VWS V14.01,2013-11-07 18:52:00,
2013-11-07 13:54:00,43.1,21.1,30.12,WNW,289,8.1,21.0,41,0.00,,,0.00,117.03,VWS V14.01,2013-11-07 18:54:00,
2013-11-07 13:55:00,43.0,20.9,30.12,NW,305,9.7,21.0,41,0.00,,,0.00,127.05,VWS V14.01,2013-11-07 18:55:00,
2013-11-07 13:56:00,42.9,21.1,30.12,NW,311,8.8,21.0,42,0.00,,,0.00,91.09,VWS V14.01,2013-11-07 18:56:00,
2013-11-07 13:57:00,43.2,21.2,30.11,NW,313,6.4,21.0,41,0.00,,,0.00,466.85,VWS V14.01,2013-11-07 18:57:00,
2013-11-07 14:00:00,43.8,18.5,30.12,NW,319,13.3,21.0,36,0.00,,,0.00,483.03,VWS V14.01,2013-11-07 19:00:00,
2013-11-07 14:02:00,42.9,18.3,30.12,WNW,292,14.6,14.6,37,0.00,,,0.00,102.38,VWS V14.01,2013-11-07 19:02:00,
2013-11-07 14:03:00,43.1,19.5,30.11,WNW,301,11.2,14.6,38,0.00,,,0.00,129.49,VWS V14.01,2013-11-07 19:03:00,
2013-11-07 14:04:00,43.6,20.1,30.11,NW,319,7.1,13.1,39,0.00,,,0.00,185.10,VWS V14.01,2013-11-07 19:04:00,
2013-11-07 14:05:00,44.0,20.8,30.11,NW,315,8.7,8.7,39,0.00,,,0.00,473.57,VWS V14.01,2013-11-07 19:05:00,
2013-11-07 14:06:00,43.8,18.1,30.12,WNW,297,13.5,13.5,35,0.00,,,0.00,526.80,VWS V14.01,2013-11-07 19:06:00,
2013-11-07 14:08:00,45.8,19.8,30.12,WNW,288,10.7,11.9,35,0.00,,,0.00,308.12,VWS V14.01,2013-11-07 19:08:00,
2013-11-07 14:09:00,44.3,16.5,30.12,West,278,14.1,15.7,32,0.00,,,0.00,520.21,VWS V14.01,2013-11-07 19:09:00,
2013-11-07 14:10:00,44.5,17.1,30.12,WNW,290,12.3,17.0,33,0.00,,,0.00,192.49,VWS V14.01,2013-11-07 19:10:00,
2013-11-07 14:11:00,44.5,17.1,30.12,WNW,290,12.3,17.0,33,0.00,,,0.00,192.49,VWS V14.01,2013-11-07 19:11:00,
2013-11-07 14:12:00,45.4,18.8,30.11,NW,314,12.9,12.9,34,0.00,,,0.00,180.53,VWS V14.01,2013-11-07 19:12:00,
2013-11-07 14:13:00,43.7,17.5,30.12,WNW,287,13.3,13.3,34,0.00,,,0.00,148.78,VWS V14.01,2013-11-07 19:13:00,
2013-11-07 14:14:00,43.7,17.7,30.12,NW,305,12.8,13.3,35,0.00,,,0.00,150.92,VWS V14.01,2013-11-07 19:14:00,
2013-11-07 14:15:00,44.2,14.7,30.11,WNW,301,15.5,15.7,30,0.00,,,0.00,326.80,VWS V14.01,2013-11-07 19:15:00,
2013-11-07 14:16:00,43.5,17.0,30.12,WSW,258,15.7,15.7,34,0.00,,,0.00,141.45,VWS V14.01,2013-11-07 19:16:00,
2013-11-07 14:17:00,45.1,15.8,30.11,NW,312,11.6,15.7,30,0.00,,,0.00,338.52,VWS V14.01,2013-11-07 19:17:00,
2013-11-07 14:18:00,43.8,19.2,30.11,West,276,10.4,10.4,37,0.00,,,0.00,209.40,VWS V14.01,2013-11-07 19:18:00,
2013-11-07 14:19:00,44.5,20.0,30.11,WNW,287,9.9,10.4,37,0.00,,,0.00,168.32,VWS V14.01,2013-11-07 19:19:00,
2013-11-07 14:21:00,44.7,18.7,30.12,West,280,11.7,12.3,35,0.00,,,0.00,441.82,VWS V14.01,2013-11-07 19:21:00,
2013-11-07 14:22:00,44.7,18.7,30.12,West,280,11.7,12.3,35,0.00,,,0.00,441.82,VWS V14.01,2013-11-07 19:22:00,
2013-11-07 14:23:00,45.4,16.2,30.15,WSW,257,15.2,18.1,30,0.00,,,0.00,333.64,VWS V14.01,2013-11-07 19:23:00,
2013-11-07 14:24:00,44.2,17.5,30.10,NW,307,9.9,11.7,34,0.00,,,0.00,441.88,VWS V14.01,2013-11-07 19:24:00,
2013-11-07 14:25:00,43.9,16.3,30.11,WNW,291,13.1,13.1,32,0.00,,,0.00,453.79,VWS V14.01,2013-11-07 19:25:00,
2013-11-07 14:26:00,44.2,13.6,30.10,WNW,302,15.3,18.1,28,0.00,,,0.00,337.18,VWS V14.01,2013-11-07 19:26:00,
2013-11-07 14:27:00,45.1,16.1,30.10,West,261,10.9,18.1,31,0.00,,,0.00,322.41,VWS V14.01,2013-11-07 19:27:00,
2013-11-07 14:28:00,44.7,15.8,30.12,West,267,11.4,11.7,31,0.00,,,0.00,475.76,VWS V14.01,2013-11-07 19:28:00,
2013-11-07 14:29:00,44.7,15.8,30.12,West,267,11.4,11.7,31,0.00,,,0.00,475.76,VWS V14.01,2013-11-07 19:29:00,
2013-11-07 14:30:00,47.2,19.0,30.10,WNW,296,17.7,17.7,32,0.00,,,0.00,458.91,VWS V14.01,2013-11-07 19:30:00,
2013-11-07 14:31:00,45.1,15.0,30.10,West,272,19.3,19.3,29,0.00,,,0.00,236.69,VWS V14.01,2013-11-07 19:31:00,
2013-11-07 14:33:00,44.1,14.7,30.10,WNW,295,11.2,21.3,30,0.00,,,0.00,122.16,VWS V14.01,2013-11-07 19:33:00,
2013-11-07 14:34:00,46.2,18.5,30.11,West,273,10.4,17.6,33,0.00,,,0.00,496.15,VWS V14.01,2013-11-07 19:34:00,
2013-11-07 14:35:00,45.3,16.3,30.11,WNW,289,18.4,18.4,31,0.00,,,0.00,479.79,VWS V14.01,2013-11-07 19:35:00,
2013-11-07 14:36:00,47.2,19.6,30.11,West,266,8.7,18.4,33,0.00,,,0.00,490.17,VWS V14.01,2013-11-07 19:36:00,
2013-11-07 14:37:00,45.9,17.6,30.10,West,273,12.9,12.9,32,0.00,,,0.00,483.33,VWS V14.01,2013-11-07 19:37:00,
2013-11-07 14:39:00,44.2,16.2,30.10,WNW,296,13.1,14.0,32,0.00,,,0.00,144.81,VWS V14.01,2013-11-07 19:39:00,
2013-11-07 14:41:00,44.2,14.6,30.10,WNW,292,18.4,18.4,30,0.00,,,0.00,407.14,VWS V14.01,2013-11-07 19:41:00,
2013-11-07 14:42:00,44.2,14.6,30.10,WNW,292,18.4,18.4,30,0.00,,,0.00,407.14,VWS V14.01,2013-11-07 19:42:00,
2013-11-07 14:43:00,44.3,13.6,30.10,West,269,17.6,18.4,28,0.00,,,0.00,363.92,VWS V14.01,2013-11-07 19:43:00,
2013-11-07 14:44:00,44.0,15.6,30.10,WNW,299,11.2,17.6,31,0.00,,,0.00,85.90,VWS V14.01,2013-11-07 19:44:00,
2013-11-07 14:45:00,43.7,15.4,30.10,West,281,12.3,12.3,31,0.00,,,0.00,80.40,VWS V14.01,2013-11-07 19:45:00,
2013-11-07 14:47:00,43.5,15.0,30.11,WSW,256,10.7,10.7,31,0.00,,,0.00,79.43,VWS V14.01,2013-11-07 19:47:00,
2013-11-07 14:48:00,43.4,16.4,30.10,West,278,9.9,11.4,33,0.00,,,0.00,72.10,VWS V14.01,2013-11-07 19:48:00,
2013-11-07 14:50:00,43.9,15.0,30.10,West,276,10.4,10.9,31,0.00,,,0.00,136.57,VWS V14.01,2013-11-07 19:50:00,
2013-11-07 14:51:00,43.9,15.0,30.10,West,276,10.4,10.9,31,0.00,,,0.00,136.57,VWS V14.01,2013-11-07 19:51:00,
2013-11-07 14:53:00,43.7,16.3,30.11,WNW,288,8.8,12.1,33,0.00,,,0.00,87.42,VWS V14.01,2013-11-07 19:53:00,
2013-11-07 14:54:00,43.6,14.7,30.10,WNW,283,13.5,13.5,31,0.00,,,0.00,93.53,VWS V14.01,2013-11-07 19:54:00,
2013-11-07 14:55:00,43.7,14.2,30.14,WNW,288,13.1,13.1,30,0.00,,,0.00,95.67,VWS V14.01,2013-11-07 19:55:00,
2013-11-07 14:56:00,43.6,15.3,30.12,WNW,293,10.4,13.1,31,0.00,,,0.00,87.73,VWS V14.01,2013-11-07 19:56:00,
2013-11-07 14:57:00,43.7,15.2,30.12,WNW,286,13.6,13.6,31,0.00,,,0.00,94.44,VWS V14.01,2013-11-07 19:57:00,
2013-11-07 14:58:00,43.8,15.3,30.11,WNW,298,11.6,11.6,31,0.00,,,0.00,149.27,VWS V14.01,2013-11-07 19:58:00,
2013-11-07 14:59:00,43.9,14.0,30.11,WNW,294,13.3,14.0,29,0.00,,,0.00,238.16,VWS V14.01,2013-11-07 19:59:00,
2013-11-07 15:00:00,44.0,15.1,30.11,WNW,296,13.1,13.3,31,0.00,,,0.00,116.73,VWS V14.01,2013-11-07 20:00:00,
2013-11-07 15:04:00,44.2,14.2,30.10,WNW,287,11.6,15.0,29,0.00,,,0.00,97.19,VWS V14.01,2013-11-07 20:04:00,
2013-11-07 15:06:00,44.3,13.8,30.10,WNW,285,13.3,15.0,29,0.00,,,0.00,100.31,VWS V14.01,2013-11-07 20:06:00,
2013-11-07 15:07:00,43.6,14.0,30.10,West,272,15.3,15.3,30,0.00,,,0.00,87.97,VWS V14.01,2013-11-07 20:07:00,
2013-11-07 15:08:00,43.9,16.3,30.11,West,275,12.8,15.7,32,0.00,,,0.00,107.51,VWS V14.01,2013-11-07 20:08:00,
2013-11-07 15:09:00,43.9,16.3,30.11,West,275,12.8,15.7,32,0.00,,,0.00,107.51,VWS V14.01,2013-11-07 20:09:00,
2013-11-07 15:11:00,44.8,17.1,30.11,WNW,300,13.5,15.7,33,0.00,,,0.00,141.45,VWS V14.01,2013-11-07 20:11:00,
2013-11-07 15:12:00,44.8,17.1,30.11,WNW,300,13.5,15.7,33,0.00,,,0.00,141.45,VWS V14.01,2013-11-07 20:12:00,
2013-11-07 15:13:00,44.5,16.0,30.11,WNW,300,13.3,15.7,31,0.00,,,0.00,131.69,VWS V14.01,2013-11-07 20:13:00,
2013-11-07 15:16:00,44.7,16.0,30.11,WNW,285,13.6,15.7,31,0.00,,,0.00,329.49,VWS V14.01,2013-11-07 20:16:00,
2013-11-07 15:17:00,45.0,14.4,30.11,WNW,294,12.8,15.7,29,0.00,,,0.00,336.08,VWS V14.01,2013-11-07 20:17:00,
2013-11-07 15:18:00,45.5,16.1,30.11,WNW,293,12.1,15.7,30,0.00,,,0.00,268.13,VWS V14.01,2013-11-07 20:18:00,
2013-11-07 15:19:00,45.5,14.8,30.10,NW,307,13.8,15.7,29,0.00,,,0.00,329.55,VWS V14.01,2013-11-07 20:19:00,
2013-11-07 15:21:00,45.1,14.6,30.11,NW,313,16.0,17.6,29,0.00,,,0.00,326.31,VWS V14.01,2013-11-07 20:21:00,
2013-11-07 15:23:00,44.7,13.6,30.12,West,275,14.1,18.1,28,0.00,,,0.00,334.13,VWS V14.01,2013-11-07 20:23:00,
2013-11-07 15:24:00,45.2,15.6,30.11,WNW,301,15.2,18.1,30,0.00,,,0.00,339.80,VWS V14.01,2013-11-07 20:24:00,
2013-11-07 15:26:00,45.0,15.5,30.10,West,276,12.6,18.1,30,0.00,,,0.00,326.80,VWS V14.01,2013-11-07 20:26:00,
2013-11-07 15:29:00,45.9,15.3,30.10,West,277,11.1,19.8,29,0.00,,,0.00,325.52,VWS V14.01,2013-11-07 20:29:00,
2013-11-07 15:31:00,44.4,13.2,30.09,NW,323,20.5,21.3,28,0.00,,,0.00,121.37,VWS V14.01,2013-11-07 20:31:00,
2013-11-07 15:32:00,44.1,13.2,30.10,WNW,283,16.2,21.3,28,0.00,,,0.00,122.65,VWS V14.01,2013-11-07 20:32:00,
2013-11-07 15:34:00,43.7,14.9,30.10,WNW,295,17.0,21.3,31,0.00,,,0.00,117.28,VWS V14.01,2013-11-07 20:34:00,
2013-11-07 15:35:00,43.7,14.9,30.10,WNW,295,17.0,21.3,31,0.00,,,0.00,117.28,VWS V14.01,2013-11-07 20:35:00,
2013-11-07 15:36:00,43.8,15.4,30.10,West,276,11.9,21.3,31,0.00,,,0.00,119.78,VWS V14.01,2013-11-07 20:36:00,
2013-11-07 15:37:00,43.8,15.9,30.10,WNW,286,11.7,21.3,32,0.00,,,0.00,107.51,VWS V14.01,2013-11-07 20:37:00,
2013-11-07 15:38:00,43.7,16.3,30.09,NW,304,11.7,21.3,33,0.00,,,0.00,115.93,VWS V14.01,2013-11-07 20:38:00,
2013-11-07 15:39:00,43.7,14.8,30.10,West,266,15.2,21.3,31,0.00,,,0.00,95.06,VWS V14.01,2013-11-07 20:39:00,
2013-11-07 15:41:00,43.5,15.0,30.14,WNW,301,14.1,21.3,31,0.00,,,0.00,202.20,VWS V14.01,2013-11-07 20:41:00,
2013-11-07 15:42:00,43.4,13.6,30.11,NW,305,18.2,21.3,29,0.00,,,0.00,80.65,VWS V14.01,2013-11-07 20:42:00,
2013-11-07 15:43:00,43.3,13.4,30.11,WNW,301,14.6,21.3,29,0.00,,,0.00,77.96,VWS V14.01,2013-11-07 20:43:00,
2013-11-07 15:44:00,43.0,13.3,30.11,WNW,290,10.0,21.3,29,0.00,,,0.00,73.38,VWS V14.01,2013-11-07 20:44:00,
2013-11-07 15:45:00,43.2,15.1,30.11,WNW,295,14.3,21.3,32,0.00,,,0.00,71.31,VWS V14.01,2013-11-07 20:45:00,
2013-11-07 15:47:00,43.0,14.4,30.10,WNW,283,11.7,21.3,31,0.00,,,0.00,78.63,VWS V14.01,2013-11-07 20:47:00,
2013-11-07 15:49:00,43.0,15.2,30.11,WNW,295,9.3,21.3,32,0.00,,,0.00,94.81,VWS V14.01,2013-11-07 20:49:00,
2013-11-07 15:51:00,43.2,13.7,30.11,WNW,286,17.0,21.3,30,0.00,,,0.00,95.42,VWS V14.01,2013-11-07 20:51:00,
2013-11-07 15:52:00,43.4,14.3,30.11,WNW,291,11.9,21.3,30,0.00,,,0.00,177.84,VWS V14.01,2013-11-07 20:52:00,
2013-11-07 15:53:00,43.2,14.8,30.11,WNW,303,10.5,21.3,31,0.00,,,0.00,75.82,VWS V14.01,2013-11-07 20:53:00,
2013-11-07 15:54:00,43.2,13.4,30.11,NW,312,14.0,21.3,29,0.00,,,0.00,77.41,VWS V14.01,2013-11-07 20:54:00,
2013-11-07 15:55:00,42.9,13.9,30.11,NW,314,10.7,21.3,30,0.00,,,0.00,63.31,VWS V14.01,2013-11-07 20:55:00,
2013-11-07 15:57:00,42.8,13.1,30.11,West,281,17.2,21.3,29,0.00,,,0.00,58.67,VWS V14.01,2013-11-07 20:57:00,
2013-11-07 15:59:00,43.4,15.0,30.11,WNW,287,9.7,21.3,31,0.00,,,0.00,168.32,VWS V14.01,2013-11-07 20:59:00,
2013-11-07 16:00:00,43.2,13.1,30.11,NW,305,14.1,21.3,29,0.00,,,0.00,80.40,VWS V14.01,2013-11-07 21:00:00,
2013-11-07 16:02:00,42.7,14.4,30.11,WNW,291,12.8,12.8,31,0.00,,,0.00,55.74,VWS V14.01,2013-11-07 21:02:00,
2013-11-07 16:04:00,42.5,14.1,30.11,West,271,12.4,12.8,31,0.00,,,0.00,55.74,VWS V14.01,2013-11-07 21:04:00,
2013-11-07 16:05:00,42.8,13.3,30.11,NW,314,14.0,14.0,30,0.00,,,0.00,51.10,VWS V14.01,2013-11-07 21:05:00,
2013-11-07 16:06:00,42.5,14.1,30.11,WNW,291,17.0,17.4,31,0.00,,,0.00,48.53,VWS V14.01,2013-11-07 21:06:00,
2013-11-07 16:07:00,42.3,14.6,30.12,WNW,300,14.8,17.4,32,0.00,,,0.00,45.91,VWS V14.01,2013-11-07 21:07:00,
2013-11-07 16:08:00,42.3,15.2,30.11,WNW,282,10.7,14.8,33,0.00,,,0.00,44.51,VWS V14.01,2013-11-07 21:08:00,
2013-11-07 16:09:00,41.5,19.0,30.11,WNW,301,11.4,18.1,40,0.00,,,0.00,10.50,VWS V14.01,2013-11-07 21:09:00,
2013-11-07 16:10:00,42.4,14.4,30.12,WNW,296,15.5,15.7,32,0.00,,,0.00,53.24,VWS V14.01,2013-11-07 21:10:00,
2013-11-07 16:11:00,42.5,14.7,30.10,WNW,286,13.8,17.2,32,0.00,,,0.00,57.94,VWS V14.01,2013-11-07 21:11:00,
2013-11-07 16:12:00,42.4,14.8,30.11,NW,307,11.6,11.6,32,0.00,,,0.00,59.04,VWS V14.01,2013-11-07 21:12:00,
2013-11-07 16:13:00,42.5,15.6,30.12,West,271,10.7,11.6,33,0.00,,,0.00,60.81,VWS V14.01,2013-11-07 21:13:00,
2013-11-07 16:16:00,42.6,14.6,30.12,West,274,15.5,15.5,32,0.00,,,0.00,61.36,VWS V14.01,2013-11-07 21:16:00,
2013-11-07 16:17:00,42.5,15.6,30.12,WNW,283,11.1,15.5,33,0.00,,,0.00,60.87,VWS V14.01,2013-11-07 21:17:00,
2013-11-07 16:18:00,42.5,15.4,30.12,WNW,300,10.2,11.1,33,0.00,,,0.00,58.42,VWS V14.01,2013-11-07 21:18:00,
2013-11-07 16:19:00,42.6,15.3,30.12,WNW,284,11.9,11.9,33,0.00,,,0.00,58.42,VWS V14.01,2013-11-07 21:19:00,
2013-11-07 16:23:00,42.5,16.0,30.11,WNW,301,10.2,13.5,34,0.00,,,0.00,55.74,VWS V14.01,2013-11-07 21:23:00,
2013-11-07 16:24:00,42.5,16.0,30.11,WNW,301,10.2,13.5,34,0.00,,,0.00,55.74,VWS V14.01,2013-11-07 21:24:00,
2013-11-07 16:26:00,42.5,16.8,30.11,WNW,298,9.2,9.2,35,0.00,,,0.00,44.20,VWS V14.01,2013-11-07 21:26:00,
2013-11-07 16:27:00,42.5,16.4,30.10,WNW,300,10.7,14.0,34,0.00,,,0.00,42.25,VWS V14.01,2013-11-07 21:27:00,
2013-11-07 16:29:00,42.2,16.9,30.12,WNW,291,9.3,10.2,36,0.00,,,0.00,34.62,VWS V14.01,2013-11-07 21:29:00,
2013-11-07 16:30:00,42.8,16.4,30.12,WNW,298,15.7,15.7,34,0.00,,,0.00,84.25,VWS V14.01,2013-11-07 21:30:00,
2013-11-07 16:32:00,42.8,16.3,30.11,WNW,292,13.6,13.6,34,0.00,,,0.00,38.58,VWS V14.01,2013-11-07 21:32:00,
2013-11-07 16:34:00,42.7,17.0,30.11,WNW,296,11.4,11.4,35,0.00,,,0.00,36.45,VWS V14.01,2013-11-07 21:34:00,
2013-11-07 16:35:00,42.5,17.3,30.11,NW,315,10.5,11.4,36,0.00,,,0.00,35.53,VWS V14.01,2013-11-07 21:35:00,
2013-11-07 16:36:00,42.6,16.6,30.11,WNW,288,14.8,14.8,35,0.00,,,0.00,44.69,VWS V14.01,2013-11-07 21:36:00,
2013-11-07 16:37:00,42.4,17.6,30.12,WNW,293,8.7,14.8,36,0.00,,,0.00,49.33,VWS V14.01,2013-11-07 21:37:00,
2013-11-07 16:41:00,42.4,17.4,30.11,NW,305,13.5,14.0,36,0.00,,,0.00,46.15,VWS V14.01,2013-11-07 21:41:00,
2013-11-07 16:42:00,42.3,17.9,30.10,NW,312,11.1,14.8,37,0.00,,,0.00,43.77,VWS V14.01,2013-11-07 21:42:00,
2013-11-07 16:44:00,42.2,17.9,30.11,WNW,293,14.8,14.8,37,0.00,,,0.00,39.80,VWS V14.01,2013-11-07 21:44:00,
2013-11-07 16:45:00,42.3,14.9,30.11,WNW,303,15.0,15.0,33,0.00,,,0.00,36.45,VWS V14.01,2013-11-07 21:45:00,
2013-11-07 16:46:00,42.1,17.5,30.12,WNW,293,14.3,14.3,37,0.00,,,0.00,33.76,VWS V14.01,2013-11-07 21:46:00,
2013-11-07 16:48:00,41.9,17.7,30.10,WNW,294,16.9,16.9,37,0.00,,,0.00,30.95,VWS V14.01,2013-11-07 21:48:00,
2013-11-07 16:50:00,41.9,17.8,30.11,WNW,293,14.5,15.8,38,0.00,,,0.00,23.99,VWS V14.01,2013-11-07 21:50:00,
2013-11-07 16:51:00,41.8,18.3,30.12,WNW,286,11.9,14.5,38,0.00,,,0.00,22.77,VWS V14.01,2013-11-07 21:51:00,
2013-11-07 16:52:00,41.9,18.3,30.12,NW,308,13.3,14.5,38,0.00,,,0.00,21.79,VWS V14.01,2013-11-07 21:52:00,
2013-11-07 16:53:00,41.8,17.6,30.11,WNW,286,11.4,15.8,37,0.00,,,0.00,19.35,VWS V14.01,2013-11-07 21:53:00,
2013-11-07 16:54:00,40.9,20.8,30.12,WNW,300,10.4,18.1,44,0.00,,,0.00,0.00,VWS V14.01,2013-11-07 21:54:00,
2013-11-07 16:55:00,41.9,17.9,30.11,WNW,297,12.1,12.1,38,0.00,,,0.00,17.77,VWS V14.01,2013-11-07 21:55:00,
2013-11-07 16:56:00,42.0,18.2,30.10,NW,307,11.7,13.1,38,0.00,,,0.00,12.27,VWS V14.01,2013-11-07 21:56:00,
2013-11-07 16:57:00,41.8,18.3,30.12,West,271,13.8,13.8,38,0.00,,,0.00,16.91,VWS V14.01,2013-11-07 21:57:00,
2013-11-07 16:58:00,41.8,18.3,30.16,WNW,284,12.1,15.3,38,0.00,,,0.00,15.69,VWS V14.01,2013-11-07 21:58:00,
2013-11-07 16:59:00,41.7,18.5,30.17,NW,309,14.0,14.0,39,0.00,,,0.00,16.61,VWS V14.01,2013-11-07 21:59:00,
2013-11-07 17:02:00,41.8,18.7,30.12,NW,312,12.6,18.1,39,0.00,,,0.00,13.00,VWS V14.01,2013-11-07 22:02:00,
2013-11-07 17:03:00,41.7,18.3,30.12,WNW,303,14.5,18.1,39,0.00,,,0.00,11.97,VWS V14.01,2013-11-07 22:03:00,
2013-11-07 17:04:00,41.7,18.4,30.12,WNW,286,14.1,18.1,39,0.00,,,0.00,12.76,VWS V14.01,2013-11-07 22:04:00,
2013-11-07 17:08:00,41.7,19.0,30.12,NW,312,13.1,18.1,40,0.00,,,0.00,10.32,VWS V14.01,2013-11-07 22:08:00,
2013-11-07 17:09:00,41.6,19.0,30.11,NW,312,12.3,18.1,40,0.00,,,0.00,10.20,VWS V14.01,2013-11-07 22:09:00,
2013-11-07 17:10:00,41.2,19.8,30.12,West,273,7.5,18.1,42,0.00,,,0.00,9.52,VWS V14.01,2013-11-07 22:10:00,
2013-11-07 17:12:00,41.2,19.4,30.12,West,281,9.7,18.1,41,0.00,,,0.00,7.14,VWS V14.01,2013-11-07 22:12:00,
2013-11-07 17:14:00,41.3,19.9,30.12,NW,314,9.5,18.1,42,0.00,,,0.00,6.90,VWS V14.01,2013-11-07 22:14:00,
2013-11-07 17:16:00,41.5,19.4,30.12,NW,307,11.2,18.1,41,0.00,,,0.00,4.70,VWS V14.01,2013-11-07 22:16:00,
2013-11-07 17:19:00,41.5,19.2,30.12,NW,305,11.2,18.1,40,0.00,,,0.00,3.36,VWS V14.01,2013-11-07 22:19:00,
2013-11-07 17:20:00,41.4,17.9,30.12,NW,325,13.5,18.1,38,0.00,,,0.00,2.26,VWS V14.01,2013-11-07 22:20:00,
2013-11-07 17:21:00,41.5,19.3,30.12,NW,314,14.8,18.1,40,0.00,,,0.00,3.17,VWS V14.01,2013-11-07 22:21:00,
2013-11-07 17:25:00,41.3,19.2,30.12,NW,310,11.4,18.1,41,0.00,,,0.00,3.17,VWS V14.01,2013-11-07 22:25:00,
2013-11-07 17:26:00,41.2,19.2,30.12,WNW,286,11.1,18.1,41,0.00,,,0.00,1.77,VWS V14.01,2013-11-07 22:26:00,
2013-11-07 17:27:00,41.3,19.3,30.11,NW,304,10.0,18.1,41,0.00,,,0.00,2.26,VWS V14.01,2013-11-07 22:27:00,
2013-11-07 17:28:00,41.2,19.5,30.12,WNW,302,10.2,18.1,41,0.00,,,0.00,1.47,VWS V14.01,2013-11-07 22:28:00,
2013-11-07 17:30:00,41.1,19.7,30.16,WNW,284,9.5,18.1,42,0.00,,,0.00,1.53,VWS V14.01,2013-11-07 22:30:00,
2013-11-07 17:31:00,41.2,19.8,30.13,NW,309,10.7,18.1,42,0.00,,,0.00,0.79,VWS V14.01,2013-11-07 22:31:00,
2013-11-07 17:32:00,41.0,19.8,30.12,WNW,302,8.3,18.1,42,0.00,,,0.00,0.61,VWS V14.01,2013-11-07 22:32:00,
2013-11-07 17:33:00,41.2,19.8,30.12,WNW,291,9.5,18.1,42,0.00,,,0.00,0.73,VWS V14.01,2013-11-07 22:33:00,
2013-11-07 17:35:00,40.7,20.3,30.13,NW,318,7.8,18.1,44,0.00,,,0.00,0.98,VWS V14.01,2013-11-07 22:35:00,
2013-11-07 17:36:00,41.3,20.6,30.12,WNW,290,7.8,18.1,43,0.00,,,0.00,0.00,VWS V14.01,2013-11-07 22:36:00,
2013-11-07 17:38:00,41.0,20.3,30.12,WNW,286,9.3,18.1,43,0.00,,,0.00,0.00,VWS V14.01,2013-11-07 22:38:00,
2013-11-07 17:39:00,41.1,20.5,30.12,WNW,298,10.7,18.1,43,0.00,,,0.00,0.00,VWS V14.01,2013-11-07 22:39:00,
2013-11-07 17:40:00,41.1,20.5,30.13,WNW,299,10.9,18.1,43,0.00,,,0.00,0.43,VWS V14.01,2013-11-07 22:40:00,
2013-11-07 17:43:00,40.8,20.7,30.12,NW,320,6.3,18.1,44,0.00,,,0.00,0.00,VWS V14.01,2013-11-07 22:43:00,
2013-11-07 17:44:00,40.6,20.9,30.12,NW,304,5.7,18.1,45,0.00,,,0.00,0.00,VWS V14.01,2013-11-07 22:44:00,
2013-11-07 17:46:00,40.6,21.0,30.12,WNW,300,5.9,18.1,45,0.00,,,0.00,0.00,VWS V14.01,2013-11-07 22:46:00,
2013-11-07 17:49:00,40.8,21.2,30.12,NW,310,6.3,18.1,45,0.00,,,0.00,0.00,VWS V14.01,2013-11-07 22:49:00,
2013-11-07 17:51:00,40.9,20.7,30.12,NNW,332,7.1,18.1,44,0.00,,,0.00,0.12,VWS V14.01,2013-11-07 22:51:00,
2013-11-07 17:52:00,40.6,20.9,30.12,WNW,284,6.9,18.1,45,0.00,,,0.00,0.00,VWS V14.01,2013-11-07 22:52:00,
2013-11-07 17:54:00,40.9,20.8,30.12,WNW,300,10.4,18.1,44,0.00,,,0.00,0.00,VWS V14.01,2013-11-07 22:54:00,
2013-11-07 17:55:00,40.5,20.7,30.12,WNW,292,11.2,18.1,45,0.00,,,0.00,0.00,VWS V14.01,2013-11-07 22:55:00,
2013-11-07 17:57:00,40.9,20.8,30.13,NW,314,11.7,18.1,44,0.00,,,0.00,0.00,VWS V14.01,2013-11-07 22:57:00,
2013-11-07 17:59:00,40.8,20.4,30.12,NW,314,12.8,18.1,44,0.00,,,0.00,0.00,VWS V14.01,2013-11-07 22:59:00,
2013-11-07 18:01:00,40.8,21.2,30.12,NW,320,10.7,10.7,45,0.00,,,0.00,0.43,VWS V14.01,2013-11-07 23:01:00,
2013-11-07 18:02:00,40.7,21.0,30.12,WNW,291,8.5,10.7,45,0.00,,,0.00,0.12,VWS V14.01,2013-11-07 23:02:00,
2013-11-07 18:03:00,40.4,21.4,30.12,WNW,293,6.1,8.5,46,0.00,,,0.00,0.00,VWS V14.01,2013-11-07 23:03:00,
2013-11-07 18:04:00,40.6,21.6,30.12,WNW,289,8.5,8.5,46,0.00,,,0.00,0.00,VWS V14.01,2013-11-07 23:04:00,
2013-11-07 18:07:00,40.7,21.4,30.12,WNW,301,7.8,7.8,46,0.00,,,0.00,0.00,VWS V14.01,2013-11-07 23:07:00,
2013-11-07 18:09:00,40.4,21.3,30.13,WNW,286,6.9,8.1,46,0.00,,,0.00,0.00,VWS V14.01,2013-11-07 23:09:00,
2013-11-07 18:12:00,40.3,21.6,30.13,NW,306,5.9,8.5,47,0.00,,,0.00,0.00,VWS V14.01,2013-11-07 23:12:00,
2013-11-07 18:13:00,40.3,21.8,30.13,NNW,336,6.1,6.1,47,0.00,,,0.00,0.12,VWS V14.01,2013-11-07 23:13:00,
2013-11-07 18:16:00,40.0,22.5,30.13,NW,319,5.6,5.6,49,0.00,,,0.00,0.00,VWS V14.01,2013-11-07 23:16:00,
2013-11-07 18:17:00,40.0,21.4,30.13,NW,304,5.1,5.6,47,0.00,,,0.00,0.00,VWS V14.01,2013-11-07 23:17:00,
2013-11-07 18:18:00,40.2,22.4,30.13,NW,325,5.1,5.6,49,0.00,,,0.00,0.73,VWS V14.01,2013-11-07 23:18:00,
2013-11-07 18:20:00,40.1,22.5,30.13,WNW,302,5.7,6.3,49,0.00,,,0.00,0.00,VWS V14.01,2013-11-07 23:20:00,
2013-11-07 18:23:00,40.2,20.4,30.13,NW,310,5.2,7.5,45,0.00,,,0.00,0.06,VWS V14.01,2013-11-07 23:23:00,
2013-11-07 18:25:00,40.3,22.0,30.13,NW,313,8.8,8.8,48,0.00,,,0.00,0.00,VWS V14.01,2013-11-07 23:25:00,
2013-11-07 18:26:00,39.7,21.4,30.12,WNW,290,7.8,8.8,48,0.00,,,0.00,0.00,VWS V14.01,2013-11-07 23:26:00,
2013-11-07 18:28:00,40.1,22.4,30.13,WNW,293,7.3,7.5,49,0.00,,,0.00,0.00,VWS V14.01,2013-11-07 23:28:00,
2013-11-07 18:29:00,40.2,22.3,30.14,NW,308,9.7,9.7,48,0.00,,,0.00,0.12,VWS V14.01,2013-11-07 23:29:00,
2013-11-07 18:30:00,40.2,22.4,30.14,NW,305,8.8,9.7,49,0.00,,,0.00,0.00,VWS V14.01,2013-11-07 23:30:00,
2013-11-07 18:31:00,40.2,22.1,30.13,WNW,303,9.0,9.0,48,0.00,,,0.00,0.73,VWS V14.01,2013-11-07 23:31:00,
2013-11-07 18:32:00,40.2,22.2,30.14,WNW,294,9.2,9.2,48,0.00,,,0.00,0.00,VWS V14.01,2013-11-07 23:32:00,
2013-11-07 18:34:00,40.5,22.0,30.13,WNW,298,9.2,9.2,47,0.00,,,0.00,0.00,VWS V14.01,2013-11-07 23:34:00,
2013-11-07 18:36:00,39.8,22.5,30.12,West,276,4.4,8.3,50,0.00,,,0.00,0.00,VWS V14.01,2013-11-07 23:36:00,
2013-11-07 18:37:00,40.1,21.1,30.12,WNW,282,6.4,6.4,46,0.00,,,0.00,0.00,VWS V14.01,2013-11-07 23:37:00,
2013-11-07 18:38:00,40.2,22.7,30.13,West,262,6.8,6.8,49,0.00,,,0.00,0.00,VWS V14.01,2013-11-07 23:38:00,
2013-11-07 18:39:00,39.7,23.0,30.13,West,274,4.5,4.5,51,0.00,,,0.00,0.00,VWS V14.01,2013-11-07 23:39:00,
2013-11-07 18:41:00,39.8,23.3,30.13,West,268,5.7,5.7,51,0.00,,,0.00,0.43,VWS V14.01,2013-11-07 23:41:00,
2013-11-07 18:42:00,39.9,23.3,30.13,West,276,5.9,5.9,51,0.00,,,0.00,0.43,VWS V14.01,2013-11-07 23:42:00,
2013-11-07 18:43:00,39.8,23.4,30.13,West,271,6.3,6.3,52,0.00,,,0.00,0.00,VWS V14.01,2013-11-07 23:43:00,
2013-11-07 18:44:00,39.8,23.7,30.13,West,275,5.2,5.2,52,0.00,,,0.00,0.00,VWS V14.01,2013-11-07 23:44:00,
2013-11-07 18:47:00,39.8,23.7,30.13,West,275,5.1,7.1,52,0.00,,,0.00,0.00,VWS V14.01,2013-11-07 23:47:00,
2013-11-07 18:48:00,39.9,23.9,30.13,West,272,6.3,6.3,52,0.00,,,0.00,0.43,VWS V14.01,2013-11-07 23:48:00,
2013-11-07 18:49:00,40.0,23.9,30.12,West,260,7.3,7.3,52,0.00,,,0.00,0.43,VWS V14.01,2013-11-07 23:49:00,
2013-11-07 18:50:00,40.0,23.6,30.13,West,276,7.3,9.3,51,0.00,,,0.00,0.00,VWS V14.01,2013-11-07 23:50:00,
2013-11-07 18:51:00,40.1,23.5,30.13,West,268,7.5,7.8,51,0.00,,,0.00,0.00,VWS V14.01,2013-11-07 23:51:00,
2013-11-07 18:52:00,39.8,23.2,30.13,West,279,7.8,7.8,51,0.00,,,0.00,0.00,VWS V14.01,2013-11-07 23:52:00,
2013-11-07 18:54:00,39.9,24.0,30.13,West,263,6.3,7.5,53,0.00,,,0.00,0.00,VWS V14.01,2013-11-07 23:54:00,
2013-11-07 18:57:00,39.9,24.0,30.13,West,271,7.5,7.5,53,0.00,,,0.00,0.00,VWS V14.01,2013-11-07 23:57:00,
2013-11-07 18:59:00,39.7,24.4,30.13,West,275,6.4,6.4,54,0.00,,,0.00,0.12,VWS V14.01,2013-11-07 23:59:00,
2013-11-07 19:01:00,39.7,24.2,30.13,West,277,6.4,7.5,54,0.00,,,0.00,0.00,VWS V14.01,2013-11-08 00:01:00,
2013-11-07 19:02:00,40.0,24.4,30.13,West,265,8.0,8.0,53,0.00,,,0.00,0.00,VWS V14.01,2013-11-08 00:02:00,
2013-11-07 19:03:00,40.0,24.0,30.13,West,266,8.1,8.1,52,0.00,,,0.00,0.00,VWS V14.01,2013-11-08 00:03:00,
2013-11-07 19:04:00,39.7,24.2,30.14,West,268,5.9,5.9,54,0.00,,,0.00,0.00,VWS V14.01,2013-11-08 00:04:00,
2013-11-07 19:05:00,39.7,21.2,30.14,West,276,7.3,7.3,47,0.00,,,0.00,0.00,VWS V14.01,2013-11-08 00:05:00,
2013-11-07 19:06:00,39.8,24.6,30.14,West,281,6.8,7.3,54,0.00,,,0.00,0.00,VWS V14.01,2013-11-08 00:06:00,
2013-11-07 19:07:00,39.8,24.5,30.14,West,271,6.9,6.9,54,0.00,,,0.00,0.00,VWS V14.01,2013-11-08 00:07:00,
2013-11-07 19:08:00,39.8,24.5,30.14,West,271,6.9,6.9,54,0.00,,,0.00,0.00,VWS V14.01,2013-11-08 00:08:00,
2013-11-07 19:10:00,39.7,24.6,30.14,WNW,288,7.3,7.3,54,0.00,,,0.00,0.00,VWS V14.01,2013-11-08 00:10:00,
2013-11-07 19:11:00,39.6,24.5,30.14,WNW,286,6.3,6.9,54,0.00,,,0.00,0.00,VWS V14.01,2013-11-08 00:11:00,
2013-11-07 19:12:00,39.4,24.6,30.14,WNW,295,4.9,6.3,55,0.00,,,0.00,0.00,VWS V14.01,2013-11-08 00:12:00,
2013-11-07 19:13:00,39.7,24.8,30.14,West,277,6.1,6.1,55,0.00,,,0.00,0.00,VWS V14.01,2013-11-08 00:13:00,
2013-11-07 19:14:00,39.5,23.7,30.13,WNW,299,6.3,6.3,53,0.00,,,0.00,0.00,VWS V14.01,2013-11-08 00:14:00,
2013-11-07 19:16:00,39.6,25.2,30.13,WNW,286,5.2,6.3,56,0.00,,,0.00,0.00,VWS V14.01,2013-11-08 00:16:00,
2013-11-07 19:17:00,39.6,25.4,30.13,WNW,288,5.9,5.9,56,0.00,,,0.00,0.00,VWS V14.01,2013-11-08 00:17:00,
2013-11-07 19:20:00,39.6,25.3,30.14,WNW,284,5.7,5.7,56,0.00,,,0.00,0.00,VWS V14.01,2013-11-08 00:20:00,
2013-11-07 19:21:00,39.3,25.6,30.13,WNW,291,4.2,4.2,57,0.00,,,0.00,0.00,VWS V14.01,2013-11-08 00:21:00,
2013-11-07 19:23:00,39.7,25.7,30.18,WNW,296,6.3,6.3,57,0.00,,,0.00,0.00,VWS V14.01,2013-11-08 00:23:00,
2013-11-07 19:25:00,39.7,25.0,30.14,WNW,290,6.3,6.9,55,0.00,,,0.00,0.00,VWS V14.01,2013-11-08 00:25:00,
2013-11-07 19:26:00,39.6,24.9,30.13,NW,310,5.7,6.9,55,0.00,,,0.00,0.00,VWS V14.01,2013-11-08 00:26:00,
2013-11-07 19:27:00,39.6,24.8,30.14,WNW,290,5.6,6.6,55,0.00,,,0.00,0.00,VWS V14.01,2013-11-08 00:27:00,
2013-11-07 19:28:00,39.7,25.0,30.13,NW,311,7.3,7.3,55,0.00,,,0.00,0.00,VWS V14.01,2013-11-08 00:28:00,
2013-11-07 19:30:00,39.8,24.5,30.13,West,280,8.3,11.9,54,0.00,,,0.00,0.00,VWS V14.01,2013-11-08 00:30:00,
2013-11-07 19:32:00,40.1,24.3,30.13,West,278,14.0,14.0,53,0.00,,,0.00,0.00,VWS V14.01,2013-11-08 00:32:00,
2013-11-07 19:33:00,39.5,24.5,30.13,WNW,290,8.0,11.4,55,0.00,,,0.00,0.00,VWS V14.01,2013-11-08 00:33:00,
2013-11-07 19:35:00,39.8,24.4,30.13,WNW,288,12.3,12.3,54,0.00,,,0.00,0.00,VWS V14.01,2013-11-08 00:35:00,
2013-11-07 19:37:00,39.4,25.0,30.12,West,276,9.0,9.0,56,0.00,,,0.00,0.00,VWS V14.01,2013-11-08 00:37:00,
2013-11-07 19:38:00,39.6,24.8,30.12,WNW,297,12.8,12.8,55,0.00,,,0.00,0.00,VWS V14.01,2013-11-08 00:38:00,
2013-11-07 19:39:00,39.8,24.7,30.12,WNW,282,12.3,12.8,54,0.00,,,0.00,0.00,VWS V14.01,2013-11-08 00:39:00,
2013-11-07 19:40:00,39.3,24.6,30.13,WNW,288,10.0,12.3,55,0.00,,,0.00,0.00,VWS V14.01,2013-11-08 00:40:00,
2013-11-07 19:42:00,39.7,24.4,30.12,WNW,302,12.1,13.8,54,0.00,,,0.00,0.00,VWS V14.01,2013-11-08 00:42:00,
2013-11-07 19:44:00,39.6,24.6,30.13,WNW,303,9.0,11.2,55,0.00,,,0.00,0.00,VWS V14.01,2013-11-08 00:44:00,
2013-11-07 19:45:00,39.4,25.1,30.13,WNW,302,6.8,7.8,56,0.00,,,0.00,0.00,VWS V14.01,2013-11-08 00:45:00,
2013-11-07 19:46:00,39.2,25.2,30.14,WNW,296,5.7,7.8,57,0.00,,,0.00,0.00,VWS V14.01,2013-11-08 00:46:00,
2013-11-07 19:48:00,39.2,25.4,30.14,WNW,302,11.9,11.9,57,0.00,,,0.00,0.00,VWS V14.01,2013-11-08 00:48:00,
2013-11-07 19:49:00,39.2,25.4,30.14,WNW,286,10.4,11.9,57,0.00,,,0.00,0.00,VWS V14.01,2013-11-08 00:49:00,
2013-11-07 19:50:00,38.8,25.5,30.13,WNW,282,10.9,11.9,58,0.00,,,0.00,0.12,VWS V14.01,2013-11-08 00:50:00,
2013-11-07 19:51:00,39.1,25.9,30.13,WNW,287,11.1,11.1,59,0.00,,,0.00,0.43,VWS V14.01,2013-11-08 00:51:00,
2013-11-07 19:52:00,38.5,25.9,30.13,WNW,290,8.7,8.7,60,0.00,,,0.00,0.00,VWS V14.01,2013-11-08 00:52:00,
2013-11-07 19:53:00,38.8,26.0,30.13,WNW,296,9.3,9.3,60,0.00,,,0.00,0.00,VWS V14.01,2013-11-08 00:53:00,
2013-11-07 19:54:00,38.8,26.5,30.14,WNW,294,7.8,9.3,61,0.00,,,0.00,0.00,VWS V14.01,2013-11-08 00:54:00,
2013-11-07 19:55:00,38.6,26.4,30.13,NW,314,7.1,7.8,61,0.00,,,0.00,0.00,VWS V14.01,2013-11-08 00:55:00,
2013-11-07 19:57:00,38.5,26.8,30.13,NW,307,6.1,7.6,62,0.00,,,0.00,0.00,VWS V14.01,2013-11-08 00:57:00,
2013-11-07 20:00:00,38.4,27.4,30.13,WNW,286,6.1,6.1,64,0.00,,,0.00,0.00,VWS V14.01,2013-11-08 01:00:00,
2013-11-07 20:01:00,38.6,27.3,30.13,NNW,334,6.8,6.8,63,0.00,,,0.00,0.00,VWS V14.01,2013-11-08 01:01:00,
2013-11-07 20:03:00,38.6,27.3,30.14,NW,313,8.7,8.7,63,0.00,,,0.00,0.00,VWS V14.01,2013-11-08 01:03:00,
2013-11-07 20:04:00,38.5,26.5,30.13,NW,313,6.9,8.7,62,0.00,,,0.00,0.00,VWS V14.01,2013-11-08 01:04:00,
2013-11-07 20:06:00,38.8,27.1,30.14,NW,319,7.8,8.7,62,0.00,,,0.00,0.12,VWS V14.01,2013-11-08 01:06:00,
2013-11-07 20:07:00,38.3,26.9,30.13,WNW,302,5.4,8.7,63,0.00,,,0.00,0.00,VWS V14.01,2013-11-08 01:07:00,
2013-11-07 20:11:00,38.8,26.6,30.14,NW,310,8.5,9.7,61,0.00,,,0.00,0.73,VWS V14.01,2013-11-08 01:11:00,
2013-11-07 20:12:00,38.7,26.6,30.14,WNW,302,7.6,9.7,62,0.00,,,0.00,0.12,VWS V14.01,2013-11-08 01:12:00,
2013-11-07 20:14:00,38.7,26.6,30.13,NW,312,9.7,9.7,61,0.00,,,0.00,0.00,VWS V14.01,2013-11-08 01:14:00,
2013-11-07 20:17:00,38.7,26.8,30.13,NW,315,7.3,9.7,62,0.00,,,0.00,0.00,VWS V14.01,2013-11-08 01:17:00,
2013-11-07 20:18:00,38.8,26.5,30.13,WNW,294,8.3,9.7,61,0.00,,,0.00,0.00,VWS V14.01,2013-11-08 01:18:00,
2013-11-07 20:21:00,38.4,27.2,30.14,NW,308,5.9,9.7,64,0.00,,,0.00,0.43,VWS V14.01,2013-11-08 01:21:00,
2013-11-07 20:22:00,38.3,27.4,30.13,NW,305,5.6,9.7,64,0.00,,,0.00,0.00,VWS V14.01,2013-11-08 01:22:00,
2013-11-07 20:24:00,38.2,27.0,30.14,NW,308,8.3,9.7,64,0.00,,,0.00,0.00,VWS V14.01,2013-11-08 01:24:00,
2013-11-07 20:27:00,37.3,27.1,30.14,WNW,301,6.8,10.5,66,0.00,,,0.00,0.00,VWS V14.01,2013-11-08 01:27:00,
2013-11-07 20:28:00,37.6,27.6,30.13,NNW,340,8.7,10.5,67,0.00,,,0.00,0.00,VWS V14.01,2013-11-08 01:28:00,
2013-11-07 20:29:00,37.6,27.9,30.13,WNW,303,7.8,10.5,68,0.00,,,0.00,0.00,VWS V14.01,2013-11-08 01:29:00,
2013-11-07 20:30:00,37.4,27.8,30.14,NW,307,8.8,10.5,68,0.00,,,0.00,0.00,VWS V14.01,2013-11-08 01:30:00,
2013-11-07 20:31:00,37.7,28.5,30.13,NW,310,7.5,10.5,69,0.00,,,0.00,0.00,VWS V14.01,2013-11-08 01:31:00,
2013-11-07 20:33:00,37.9,28.8,30.13,WNW,284,8.7,10.5,69,0.00,,,0.00,0.00,VWS V14.01,2013-11-08 01:33:00,
2013-11-07 20:34:00,37.8,28.5,30.13,West,281,10.4,10.5,69,0.00,,,0.00,0.00,VWS V14.01,2013-11-08 01:34:00,
2013-11-07 20:36:00,37.8,28.7,30.13,West,278,7.6,10.5,69,0.00,,,0.00,0.00,VWS V14.01,2013-11-08 01:36:00,
2013-11-07 20:37:00,37.7,28.8,30.14,West,267,5.9,10.5,70,0.00,,,0.00,0.00,VWS V14.01,2013-11-08 01:37:00,
2013-11-07 20:39:00,37.9,29.0,30.13,West,271,8.3,10.5,70,0.00,,,0.00,0.43,VWS V14.01,2013-11-08 01:39:00,
2013-11-07 20:40:00,37.5,28.9,30.13,WNW,286,9.2,10.5,71,0.00,,,0.00,0.00,VWS V14.01,2013-11-08 01:40:00,
2013-11-07 20:41:00,37.5,28.9,30.13,WNW,286,9.2,10.5,71,0.00,,,0.00,0.00,VWS V14.01,2013-11-08 01:41:00,
2013-11-07 20:42:00,38.0,29.0,30.14,WNW,292,10.0,10.5,70,0.00,,,0.00,0.00,VWS V14.01,2013-11-08 01:42:00,
2013-11-07 20:44:00,37.5,28.8,30.12,WNW,296,7.5,10.5,70,0.00,,,0.00,0.43,VWS V14.01,2013-11-08 01:44:00,
2013-11-07 20:45:00,37.6,29.1,30.14,West,277,8.0,10.5,71,0.00,,,0.00,0.12,VWS V14.01,2013-11-08 01:45:00,
2013-11-07 20:49:00,37.3,29.6,30.14,West,276,6.8,10.5,73,0.00,,,0.00,0.00,VWS V14.01,2013-11-08 01:49:00,
2013-11-07 20:50:00,37.4,30.1,30.14,WNW,284,7.3,10.5,75,0.00,,,0.00,0.00,VWS V14.01,2013-11-08 01:50:00,
2013-11-07 20:51:00,37.4,30.2,30.13,WNW,282,6.3,10.5,75,0.00,,,0.00,0.00,VWS V14.01,2013-11-08 01:51:00,
2013-11-07 20:52:00,37.7,30.6,30.13,WNW,289,6.9,10.5,75,0.00,,,0.00,0.43,VWS V14.01,2013-11-08 01:52:00,
2013-11-07 20:53:00,37.4,30.0,30.13,West,269,6.6,10.5,74,0.00,,,0.00,0.00,VWS V14.01,2013-11-08 01:53:00,
2013-11-07 20:54:00,37.5,30.2,30.14,WNW,282,8.1,10.5,75,0.00,,,0.00,0.00,VWS V14.01,2013-11-08 01:54:00,
2013-11-07 20:55:00,37.5,30.3,30.13,West,281,5.4,10.5,75,0.00,,,0.00,0.00,VWS V14.01,2013-11-08 01:55:00,
2013-11-07 20:58:00,37.5,30.1,30.13,West,273,7.5,10.5,74,0.00,,,0.00,0.43,VWS V14.01,2013-11-08 01:58:00,
2013-11-07 21:00:00,37.5,29.7,30.13,West,265,7.3,10.5,73,0.00,,,0.00,0.73,VWS V14.01,2013-11-08 02:00:00,
2013-11-07 21:03:00,37.5,29.8,30.13,WNW,282,8.7,9.9,74,0.00,,,0.00,0.43,VWS V14.01,2013-11-08 02:03:00,
2013-11-07 21:04:00,37.5,30.2,30.13,West,267,8.0,8.0,75,0.00,,,0.00,0.00,VWS V14.01,2013-11-08 02:04:00,
2013-11-07 21:05:00,37.4,30.0,30.13,West,269,7.6,8.0,74,0.00,,,0.00,0.00,VWS V14.01,2013-11-08 02:05:00,
2013-11-07 21:06:00,37.5,30.1,30.13,West,265,10.4,10.4,74,0.00,,,0.00,0.00,VWS V14.01,2013-11-08 02:06:00,
2013-11-07 21:07:00,37.5,30.0,30.13,WNW,295,9.5,9.5,74,0.00,,,0.00,0.00,VWS V14.01,2013-11-08 02:07:00,
2013-11-07 21:09:00,37.2,29.7,30.12,West,273,6.9,9.9,74,0.00,,,0.00,0.00,VWS V14.01,2013-11-08 02:09:00,
2013-11-07 21:10:00,37.5,29.6,30.13,WNW,285,9.7,9.7,73,0.00,,,0.00,0.00,VWS V14.01,2013-11-08 02:10:00,
2013-11-07 21:11:00,37.4,29.6,30.13,West,265,8.1,8.1,73,0.00,,,0.00,0.00,VWS V14.01,2013-11-08 02:11:00,
2013-11-07 21:12:00,37.4,29.8,30.14,WNW,301,8.0,8.1,74,0.00,,,0.00,0.00,VWS V14.01,2013-11-08 02:12:00,
2013-11-07 21:16:00,37.5,29.9,30.13,WNW,302,8.3,10.9,74,0.00,,,0.00,0.00,VWS V14.01,2013-11-08 02:16:00,
2013-11-07 21:17:00,37.5,29.9,30.13,WNW,302,8.3,10.9,74,0.00,,,0.00,0.00,VWS V14.01,2013-11-08 02:17:00,
2013-11-07 21:18:00,37.6,29.9,30.14,WNW,290,9.5,10.5,73,0.00,,,0.00,0.00,VWS V14.01,2013-11-08 02:18:00,
2013-11-07 21:19:00,37.7,29.9,30.13,West,278,8.3,9.5,73,0.00,,,0.00,0.43,VWS V14.01,2013-11-08 02:19:00,
2013-11-07 21:22:00,37.7,29.7,30.14,WNW,296,8.1,9.7,72,0.00,,,0.00,0.00,VWS V14.01,2013-11-08 02:22:00,
2013-11-07 21:23:00,37.8,29.6,30.14,WNW,288,7.5,8.1,72,0.00,,,0.00,0.00,VWS V14.01,2013-11-08 02:23:00,
2013-11-07 21:24:00,37.8,29.4,30.14,WNW,301,8.7,8.7,71,0.00,,,0.00,0.00,VWS V14.01,2013-11-08 02:24:00,
2013-11-07 21:28:00,37.9,28.9,30.13,West,271,7.6,10.0,70,0.00,,,0.00,0.73,VWS V14.01,2013-11-08 02:28:00,
2013-11-07 21:29:00,38.0,29.0,30.14,WNW,301,10.5,10.5,70,0.00,,,0.00,0.12,VWS V14.01,2013-11-08 02:29:00,
2013-11-07 21:30:00,38.0,28.8,30.14,WNW,293,9.9,10.5,69,0.00,,,0.00,0.00,VWS V14.01,2013-11-08 02:30:00,
2013-11-07 21:31:00,38.1,28.8,30.14,WNW,285,12.9,12.9,69,0.00,,,0.00,0.00,VWS V14.01,2013-11-08 02:31:00,
2013-11-07 21:34:00,37.9,28.6,30.14,WNW,290,11.2,11.2,69,0.00,,,0.00,0.00,VWS V14.01,2013-11-08 02:34:00,
2013-11-07 21:35:00,37.9,28.5,30.14,WNW,286,10.7,12.8,68,0.00,,,0.00,0.00,VWS V14.01,2013-11-08 02:35:00,
2013-11-07 21:36:00,38.1,28.6,30.14,WNW,293,11.2,12.8,68,0.00,,,0.00,0.73,VWS V14.01,2013-11-08 02:36:00,
2013-11-07 21:39:00,38.0,28.8,30.14,NW,307,9.7,9.7,69,0.00,,,0.00,0.00,VWS V14.01,2013-11-08 02:39:00,
2013-11-07 21:40:00,37.5,28.7,30.14,West,275,7.8,8.7,70,0.00,,,0.00,0.00,VWS V14.01,2013-11-08 02:40:00,
2013-11-07 21:41:00,37.3,28.7,30.14,WNW,293,8.0,8.5,71,0.00,,,0.00,0.00,VWS V14.01,2013-11-08 02:41:00,
2013-11-07 21:44:00,37.5,28.8,30.14,NW,310,8.8,9.7,71,0.00,,,0.00,0.06,VWS V14.01,2013-11-08 02:44:00,
2013-11-07 21:45:00,37.6,28.8,30.15,NW,319,10.7,10.7,70,0.00,,,0.00,0.00,VWS V14.01,2013-11-08 02:45:00,
2013-11-07 21:46:00,37.2,28.5,30.14,WNW,287,9.9,10.7,70,0.00,,,0.00,0.00,VWS V14.01,2013-11-08 02:46:00,
2013-11-07 21:48:00,37.6,29.2,30.15,WNW,291,11.2,11.2,71,0.00,,,0.00,0.00,VWS V14.01,2013-11-08 02:48:00,
2013-11-07 21:49:00,37.4,28.7,30.14,WNW,282,9.0,11.2,71,0.00,,,0.00,0.00,VWS V14.01,2013-11-08 02:49:00,
2013-11-07 21:50:00,37.2,28.6,30.14,West,281,8.8,9.0,71,0.00,,,0.00,0.00,VWS V14.01,2013-11-08 02:50:00,
2013-11-07 21:51:00,37.3,28.8,30.15,WNW,291,8.5,8.8,71,0.00,,,0.00,0.00,VWS V14.01,2013-11-08 02:51:00,
2013-11-07 21:52:00,37.2,28.8,30.15,WNW,285,9.3,10.9,71,0.00,,,0.00,0.00,VWS V14.01,2013-11-08 02:52:00,
2013-11-07 21:53:00,37.0,28.6,30.19,WNW,299,7.6,7.6,71,0.00,,,0.00,0.00,VWS V14.01,2013-11-08 02:53:00,
2013-11-07 21:55:00,37.8,29.6,30.15,WNW,295,13.5,13.5,72,0.00,,,0.00,0.00,VWS V14.01,2013-11-08 02:55:00,
2013-11-07 21:56:00,36.9,28.6,30.15,WNW,299,8.5,8.5,72,0.00,,,0.00,0.00,VWS V14.01,2013-11-08 02:56:00,
2013-11-07 21:57:00,36.6,28.4,30.15,NW,304,7.6,8.5,72,0.00,,,0.00,0.00,VWS V14.01,2013-11-08 02:57:00,
2013-11-07 21:58:00,37.3,29.4,30.15,WNW,292,10.9,10.9,73,0.00,,,0.00,0.00,VWS V14.01,2013-11-08 02:58:00,
2013-11-07 21:59:00,37.2,29.1,30.15,WNW,295,9.0,12.3,72,0.00,,,0.00,0.00,VWS V14.01,2013-11-08 02:59:00,
2013-11-07 22:01:00,37.0,29.2,30.13,WNW,287,8.1,8.1,73,0.00,,,0.00,0.00,VWS V14.01,2013-11-08 03:01:00,
2013-11-07 22:02:00,36.9,29.2,30.14,WNW,303,8.3,8.3,73,0.00,,,0.00,0.00,VWS V14.01,2013-11-08 03:02:00,
2013-11-07 22:03:00,37.2,29.5,30.14,WNW,301,10.4,10.4,73,0.00,,,0.00,0.00,VWS V14.01,2013-11-08 03:03:00,
2013-11-07 22:04:00,37.0,29.3,30.14,West,265,8.1,10.4,73,0.00,,,0.00,0.00,VWS V14.01,2013-11-08 03:04:00,
2013-11-07 22:06:00,37.5,29.8,30.15,WNW,300,10.0,10.0,74,0.00,,,0.00,0.00,VWS V14.01,2013-11-08 03:06:00,
2013-11-07 22:07:00,37.0,29.2,30.15,West,277,8.0,10.5,73,0.00,,,0.00,0.43,VWS V14.01,2013-11-08 03:07:00,
2013-11-07 22:09:00,37.2,29.3,30.15,NW,305,8.5,8.5,73,0.00,,,0.00,0.12,VWS V14.01,2013-11-08 03:09:00,
2013-11-07 22:12:00,37.0,29.6,30.15,WNW,289,7.3,7.3,74,0.00,,,0.00,0.00,VWS V14.01,2013-11-08 03:12:00,
2013-11-07 22:13:00,37.1,29.6,30.14,West,268,9.2,9.2,74,0.00,,,0.00,0.00,VWS V14.01,2013-11-08 03:13:00,
2013-11-07 22:14:00,37.1,29.5,30.14,WNW,303,8.1,9.2,74,0.00,,,0.00,0.00,VWS V14.01,2013-11-08 03:14:00,
2013-11-07 22:15:00,37.0,29.4,30.14,West,267,9.0,9.0,74,0.00,,,0.00,0.00,VWS V14.01,2013-11-08 03:15:00,
2013-11-07 22:16:00,37.3,29.5,30.14,WNW,282,8.7,8.7,73,0.00,,,0.00,0.00,VWS V14.01,2013-11-08 03:16:00,
2013-11-07 22:19:00,37.1,29.2,30.14,West,278,8.3,8.3,73,0.00,,,0.00,0.00,VWS V14.01,2013-11-08 03:19:00,
2013-11-07 22:20:00,37.0,29.2,30.14,WSW,255,7.3,9.9,73,0.00,,,0.00,0.00,VWS V14.01,2013-11-08 03:20:00,
2013-11-07 22:21:00,37.1,29.4,30.18,WNW,284,9.9,9.9,73,0.00,,,0.00,0.00,VWS V14.01,2013-11-08 03:21:00,
2013-11-07 22:22:00,36.9,29.2,30.14,West,277,7.5,7.5,73,0.00,,,0.00,0.00,VWS V14.01,2013-11-08 03:22:00,
2013-11-07 22:24:00,36.9,29.5,30.15,West,270,7.5,7.5,74,0.00,,,0.00,0.00,VWS V14.01,2013-11-08 03:24:00,
2013-11-07 22:26:00,37.1,29.6,30.14,West,276,8.7,8.7,74,0.00,,,0.00,0.00,VWS V14.01,2013-11-08 03:26:00,
2013-11-07 22:27:00,37.0,29.6,30.15,West,273,8.5,8.7,74,0.00,,,0.00,0.00,VWS V14.01,2013-11-08 03:27:00,
2013-11-07 22:28:00,37.0,29.6,30.15,WNW,293,8.0,9.2,74,0.00,,,0.00,0.00,VWS V14.01,2013-11-08 03:28:00,
2013-11-07 22:29:00,37.2,29.9,30.14,WNW,283,9.7,9.7,75,0.00,,,0.00,0.00,VWS V14.01,2013-11-08 03:29:00,
2013-11-07 22:30:00,37.2,29.9,30.14,WNW,283,9.7,9.7,75,0.00,,,0.00,0.00,VWS V14.01,2013-11-08 03:30:00,
2013-11-07 22:33:00,36.8,29.4,30.16,WNW,297,9.5,9.5,74,0.00,,,0.00,0.12,VWS V14.01,2013-11-08 03:33:00,
2013-11-07 22:34:00,36.8,29.4,30.16,WNW,297,9.5,9.5,74,0.00,,,0.00,0.12,VWS V14.01,2013-11-08 03:34:00,
2013-11-07 22:35:00,36.8,29.3,30.14,WNW,283,7.8,7.8,74,0.00,,,0.00,0.73,VWS V14.01,2013-11-08 03:35:00,
2013-11-07 22:38:00,37.1,29.9,30.14,WNW,298,9.3,9.3,75,0.00,,,0.00,0.00,VWS V14.01,2013-11-08 03:38:00,
2013-11-07 22:39:00,37.1,29.9,30.14,WNW,298,9.3,9.3,75,0.00,,,0.00,0.00,VWS V14.01,2013-11-08 03:39:00,
2013-11-07 22:40:00,36.5,29.1,30.14,WNW,291,6.9,9.0,74,0.00,,,0.00,0.73,VWS V14.01,2013-11-08 03:40:00,
2013-11-07 22:41:00,36.4,29.1,30.14,WNW,289,6.3,6.9,75,0.00,,,0.00,0.00,VWS V14.01,2013-11-08 03:41:00,
2013-11-07 22:42:00,36.4,29.3,30.15,West,271,7.1,9.0,75,0.00,,,0.00,0.00,VWS V14.01,2013-11-08 03:42:00,
2013-11-07 22:44:00,36.2,29.4,30.14,West,278,6.4,6.4,76,0.00,,,0.00,0.00,VWS V14.01,2013-11-08 03:44:00,
2013-11-07 22:45:00,36.2,29.4,30.14,West,278,6.4,6.4,76,0.00,,,0.00,0.00,VWS V14.01,2013-11-08 03:45:00,
2013-11-07 22:46:00,36.1,29.1,30.15,WSW,257,6.8,6.8,76,0.00,,,0.00,0.12,VWS V14.01,2013-11-08 03:46:00,
2013-11-07 22:49:00,35.5,29.6,30.14,WSW,258,6.6,6.6,79,0.00,,,0.00,0.12,VWS V14.01,2013-11-08 03:49:00,
2013-11-07 22:50:00,35.4,29.7,30.14,West,273,6.1,6.6,79,0.00,,,0.00,0.00,VWS V14.01,2013-11-08 03:50:00,
2013-11-07 22:51:00,35.4,29.7,30.14,West,270,6.3,6.3,80,0.00,,,0.00,0.00,VWS V14.01,2013-11-08 03:51:00,
2013-11-07 22:53:00,35.2,29.9,30.15,WNW,290,6.3,6.3,81,0.00,,,0.00,0.00,VWS V14.01,2013-11-08 03:53:00,
2013-11-07 22:55:00,35.2,29.9,30.15,West,281,4.5,6.6,81,0.00,,,0.00,0.00,VWS V14.01,2013-11-08 03:55:00,
2013-11-07 22:57:00,35.1,30.2,30.15,WSW,252,6.6,6.9,82,0.00,,,0.00,0.00,VWS V14.01,2013-11-08 03:57:00,
2013-11-07 22:58:00,35.1,30.3,30.15,WNW,283,6.1,6.9,82,0.00,,,0.00,0.43,VWS V14.01,2013-11-08 03:58:00,
2013-11-07 22:59:00,35.2,30.5,30.16,West,272,6.8,6.8,83,0.00,,,0.00,0.00,VWS V14.01,2013-11-08 03:59:00,
2013-11-07 23:00:00,35.3,30.7,30.15,West,278,6.6,6.8,83,0.00,,,0.00,0.00,VWS V14.01,2013-11-08 04:00:00,
2013-11-07 23:01:00,35.1,30.4,30.16,WNW,284,5.9,6.9,83,0.00,,,0.00,0.00,VWS V14.01,2013-11-08 04:01:00,
2013-11-07 23:03:00,35.5,30.9,30.16,West,266,6.1,6.1,83,0.00,,,0.00,0.00,VWS V14.01,2013-11-08 04:03:00,
2013-11-07 23:04:00,35.6,31.1,30.15,West,270,8.0,8.0,83,0.00,,,0.00,0.00,VWS V14.01,2013-11-08 04:04:00,
2013-11-07 23:05:00,36.0,31.3,30.16,WNW,284,7.5,7.8,83,0.00,,,0.00,0.00,VWS V14.01,2013-11-08 04:05:00,
2013-11-07 23:08:00,36.3,30.6,30.16,WNW,296,7.5,9.2,80,0.00,,,0.00,0.00,VWS V14.01,2013-11-08 04:08:00,
2013-11-07 23:11:00,36.7,29.4,30.19,WNW,299,8.1,9.0,75,0.00,,,0.00,0.00,VWS V14.01,2013-11-08 04:11:00,
2013-11-07 23:12:00,36.9,29.0,30.15,WNW,290,8.1,11.4,73,0.00,,,0.00,0.00,VWS V14.01,2013-11-08 04:12:00,
2013-11-07 23:15:00,36.9,28.1,30.16,WNW,302,10.9,10.9,70,0.00,,,0.00,0.00,VWS V14.01,2013-11-08 04:15:00,
2013-11-07 23:16:00,37.3,26.9,30.15,WNW,291,12.1,12.1,66,0.00,,,0.00,0.73,VWS V14.01,2013-11-08 04:16:00,
2013-11-07 23:17:00,37.0,27.5,30.16,NW,319,9.5,13.3,68,0.00,,,0.00,0.00,VWS V14.01,2013-11-08 04:17:00,
2013-11-07 23:18:00,37.2,26.7,30.15,WNW,285,12.6,12.6,65,0.00,,,0.00,0.00,VWS V14.01,2013-11-08 04:18:00,
2013-11-07 23:21:00,37.7,25.2,30.15,NNW,327,14.8,14.8,61,0.00,,,0.00,0.00,VWS V14.01,2013-11-08 04:21:00,
2013-11-07 23:22:00,37.6,24.3,30.15,WNW,297,18.9,18.9,58,0.00,,,0.00,0.06,VWS V14.01,2013-11-08 04:22:00,
2013-11-07 23:23:00,37.6,24.3,30.15,WNW,297,18.9,18.9,58,0.00,,,0.00,0.06,VWS V14.01,2013-11-08 04:23:00,
2013-11-07 23:24:00,37.5,23.4,30.15,WNW,291,17.7,17.7,56,0.00,,,0.00,0.00,VWS V14.01,2013-11-08 04:24:00,
2013-11-07 23:25:00,37.4,23.5,30.16,WNW,302,13.3,17.7,57,0.00,,,0.00,0.00,VWS V14.01,2013-11-08 04:25:00,
2013-11-07 23:26:00,37.3,23.5,30.15,WNW,303,14.0,15.3,57,0.00,,,0.00,0.00,VWS V14.01,2013-11-08 04:26:00,
2013-11-07 23:29:00,37.1,23.2,30.15,NNW,329,13.1,13.1,57,0.00,,,0.00,0.06,VWS V14.01,2013-11-08 04:29:00,
2013-11-07 23:30:00,37.1,23.6,30.16,WNW,296,11.6,13.3,58,0.00,,,0.00,0.00,VWS V14.01,2013-11-08 04:30:00,
2013-11-07 23:31:00,37.1,23.6,30.16,NW,314,11.1,11.6,58,0.00,,,0.00,0.00,VWS V14.01,2013-11-08 04:31:00,
2013-11-07 23:33:00,37.2,23.5,30.16,WNW,301,13.1,13.1,57,0.00,,,0.00,0.00,VWS V14.01,2013-11-08 04:33:00,
2013-11-07 23:36:00,36.8,23.5,30.16,NNW,333,9.0,11.6,58,0.00,,,0.00,0.00,VWS V14.01,2013-11-08 04:36:00,
2013-11-07 23:37:00,36.8,23.6,30.15,NNW,333,9.9,9.9,58,0.00,,,0.00,0.00,VWS V14.01,2013-11-08 04:37:00,
2013-11-07 23:38:00,36.9,23.6,30.15,NW,313,15.2,15.2,58,0.00,,,0.00,0.00,VWS V14.01,2013-11-08 04:38:00,
2013-11-07 23:40:00,36.9,23.4,30.15,NNW,330,14.5,14.5,58,0.00,,,0.00,0.00,VWS V14.01,2013-11-08 04:40:00,
2013-11-07 23:41:00,36.8,23.5,30.15,WNW,302,12.9,14.5,58,0.00,,,0.00,0.00,VWS V14.01,2013-11-08 04:41:00,
2013-11-07 23:42:00,36.5,23.6,30.15,NW,304,13.1,13.1,59,0.00,,,0.00,0.12,VWS V14.01,2013-11-08 04:42:00,
2013-11-07 23:45:00,36.3,24.5,30.15,WNW,301,13.1,13.1,62,0.00,,,0.00,0.00,VWS V14.01,2013-11-08 04:45:00,
2013-11-07 23:46:00,36.3,25.0,30.15,NW,322,13.3,13.3,63,0.00,,,0.00,0.12,VWS V14.01,2013-11-08 04:46:00,
2013-11-07 23:47:00,36.2,25.5,30.15,NNW,330,13.1,13.1,65,0.00,,,0.00,0.43,VWS V14.01,2013-11-08 04:47:00,
2013-11-07 23:48:00,36.0,25.8,30.16,NW,308,13.8,13.8,66,0.00,,,0.00,0.00,VWS V14.01,2013-11-08 04:48:00,
2013-11-07 23:51:00,35.8,26.8,30.16,NNW,335,14.8,14.8,69,0.00,,,0.00,0.00,VWS V14.01,2013-11-08 04:51:00,
2013-11-07 23:52:00,35.8,27.1,30.16,WNW,302,14.5,14.8,70,0.00,,,0.00,0.00,VWS V14.01,2013-11-08 04:52:00,
2013-11-07 23:54:00,35.8,27.6,30.16,NW,322,12.3,16.9,72,0.00,,,0.00,0.00,VWS V14.01,2013-11-08 04:54:00,
2013-11-07 23:57:00,34.3,28.5,30.17,NNW,335,15.3,20.1,79,0.00,,,0.00,0.12,VWS V14.01,2013-11-08 04:57:00,
2013-11-07 23:58:00,34.0,29.3,30.17,NNW,342,11.6,16.4,83,0.00,,,0.00,0.00,VWS V14.01,2013-11-08 04:58:00,
2013-11-07 23:59:00,33.9,29.6,30.17,NNW,336,11.1,11.6,84,0.00,,,0.00,0.00,VWS V14.01,2013-11-08 04:59:00,